Observation data for Van Horn on 06/24/2019      Previous  Date       Current Mesonet Observations  Soil Data  Daily Summary Page  Observations in Plain Language
KVA1 240500Z 29006KT 23/M03 A2998 RMK A01 T02261027  RH  018%=      5-min Rain = 0
KVA1 240501Z 29005KT 23/M03 A2998 RMK A01 T02261027  RH  018%=      5-min Rain = 0
KVA1 240502Z 30005KT 23/M03 A2998 RMK A01 T02261027  RH  018%=      5-min Rain = 0
KVA1 240503Z 30005KT 23/M03 A2998 RMK A01 T02261027  RH  018%=      5-min Rain = 0
KVA1 240504Z 29005KT 23/M03 A2998 RMK A01 T02251027  RH  018%=      5-min Rain = 0
KVA1 240505Z 29005KT 23/M03 A2998 RMK A01 T02251027  RH  018%=      5-min Rain = 0
KVA1 240506Z 29006KT 22/M03 A2998 RMK A01 T02241028  RH  018%=      5-min Rain = 0
KVA1 240507Z 29006KT 22/M03 A2998 RMK A01 T02241028  RH  018%=      5-min Rain = 0
KVA1 240508Z 29007KT 23/M03 A2998 RMK A01 T02251028  RH  018%=      5-min Rain = 0
KVA1 240509Z 29007KT 22/M03 A2998 RMK A01 T02241028  RH  018%=      5-min Rain = 0
KVA1 240510Z 29006KT 22/M03 A2998 RMK A01 T02241029  RH  018%=      5-min Rain = 0
KVA1 240511Z 29005KT 22/M03 A2998 RMK A01 T02231029  RH  018%=      5-min Rain = 0
KVA1 240512Z 27003KT 22/M03 A2998 RMK A01 T02231029  RH  018%=      5-min Rain = 0
KVA1 240513Z 24002KT 22/M03 A2998 RMK A01 T02221029  RH  019%=      5-min Rain = 0
KVA1 240514Z 20003KT 22/M03 A2998 RMK A01 T02201028  RH  019%=      5-min Rain = 0
KVA1 240515Z 22002KT 22/M03 A2998 RMK A01 T02191027  RH  019%=      5-min Rain = 0
KVA1 240516Z 22003KT 22/M03 A2998 RMK A01 T02191027  RH  019%=      5-min Rain = 0
KVA1 240517Z 22003KT 22/M03 A2998 RMK A01 T02201027  RH  019%=      5-min Rain = 0
KVA1 240518Z 22003KT 22/M03 A2998 RMK A01 T02201027  RH  019%=      5-min Rain = 0
KVA1 240519Z 20004KT 22/M03 A2998 RMK A01 T02211027  RH  019%=      5-min Rain = 0
KVA1 240520Z 21005KT 22/M03 A2998 RMK A01 T02211027  RH  019%=      5-min Rain = 0
KVA1 240521Z 20004KT 22/M03 A2998 RMK A01 T02231026  RH  019%=      5-min Rain = 0
KVA1 240522Z 20004KT 23/M03 A2998 RMK A01 T02261025  RH  019%=      5-min Rain = 0
KVA1 240523Z 20004KT 23/M03 A2998 RMK A01 T02281025  RH  018%=      5-min Rain = 0
KVA1 240524Z 20004KT 23/M03 A2998 RMK A01 T02291025  RH  018%=      5-min Rain = 0
KVA1 240525Z 20004KT 23/M03 A2998 RMK A01 T02291025  RH  018%=      5-min Rain = 0
KVA1 240526Z 21005KT 23/M03 A2998 RMK A01 T02291026  RH  018%=      5-min Rain = 0
KVA1 240527Z 20004KT 23/M03 A2998 RMK A01 T02291026  RH  018%=      5-min Rain = 0
KVA1 240528Z 19004KT 23/M03 A2998 RMK A01 T02301025  RH  018%=      5-min Rain = 0
KVA1 240529Z 20005KT 23/M03 A2998 RMK A01 T02311025  RH  018%=      5-min Rain = 0
KVA1 240530Z 20005KT 23/M03 A2998 RMK A01 T02321026  RH  018%=      5-min Rain = 0
KVA1 240531Z 19005KT 23/M03 A2998 RMK A01 T02321027  RH  018%=      5-min Rain = 0
KVA1 240532Z 20005KT 23/M03 A2998 RMK A01 T02321027  RH  018%=      5-min Rain = 0
KVA1 240533Z 21005KT 23/M03 A2998 RMK A01 T02321027  RH  018%=      5-min Rain = 0
KVA1 240534Z 20005KT 23/M03 A2998 RMK A01 T02311027  RH  018%=      5-min Rain = 0
KVA1 240535Z 20005KT 23/M03 A2998 RMK A01 T02301027  RH  018%=      5-min Rain = 0
KVA1 240536Z 20006KT 23/M03 A2998 RMK A01 T02311027  RH  018%=      5-min Rain = 0
KVA1 240537Z 20006KT 23/M03 A2998 RMK A01 T02301028  RH  018%=      5-min Rain = 0
KVA1 240538Z 21005KT 23/M03 A2998 RMK A01 T02291028  RH  018%=      5-min Rain = 0
KVA1 240539Z 21006KT 23/M03 A2998 RMK A01 T02271028  RH  018%=      5-min Rain = 0
KVA1 240540Z 21006KT 23/M03 A2998 RMK A01 T02251029  RH  018%=      5-min Rain = 0
KVA1 240541Z 21006KT 22/M03 A2998 RMK A01 T02231029  RH  018%=      5-min Rain = 0
KVA1 240542Z 21006KT 22/M03 A2998 RMK A01 T02231029  RH  018%=      5-min Rain = 0
KVA1 240543Z 21006KT 22/M03 A2998 RMK A01 T02221029  RH  018%=      5-min Rain = 0
KVA1 240544Z 21006KT 22/M03 A2998 RMK A01 T02211029  RH  019%=      5-min Rain = 0
KVA1 240545Z 21006KT 22/M03 A2998 RMK A01 T02211029  RH  019%=      5-min Rain = 0
KVA1 240546Z 21006KT 22/M03 A2998 RMK A01 T02201029  RH  019%=      5-min Rain = 0
KVA1 240547Z 21006KT 22/M03 A2998 RMK A01 T02191029  RH  019%=      5-min Rain = 0
KVA1 240548Z 21006KT 22/M03 A2998 RMK A01 T02191028  RH  019%=      5-min Rain = 0
KVA1 240549Z 21006KT 22/M03 A2998 RMK A01 T02171029  RH  019%=      5-min Rain = 0
KVA1 240550Z 22006KT 22/M03 A2998 RMK A01 T02161029  RH  019%=      5-min Rain = 0
KVA1 240551Z 22007KT 22/M03 A2998 RMK A01 T02161028  RH  019%=      5-min Rain = 0
KVA1 240552Z 22007KT 22/M03 A2998 RMK A01 T02161028  RH  019%=      5-min Rain = 0
KVA1 240553Z 22006KT 22/M03 A2998 RMK A01 T02161029  RH  019%=      5-min Rain = 0
KVA1 240554Z 22006KT 22/M03 A2998 RMK A01 T02161028  RH  019%=      5-min Rain = 0
KVA1 240555Z 22006KT 22/M03 A2998 RMK A01 T02161029  RH  019%=      5-min Rain = 0
KVA1 240556Z 23006KT 22/M03 A2998 RMK A01 T02161029  RH  019%=      5-min Rain = 0
KVA1 240557Z 23006KT 22/M03 A2998 RMK A01 T02161028  RH  019%=      5-min Rain = 0
KVA1 240558Z 23006KT 22/M03 A2998 RMK A01 T02161029  RH  019%=      5-min Rain = 0
KVA1 240559Z 23006KT 22/M03 A2998 RMK A01 T02151028  RH  019%=      5-min Rain = 0
KVA1 240600Z 23007KT 21/M03 A2998 RMK A01 T02141029  RH  019%=      5-min Rain = 0
KVA1 240601Z 23006KT 21/M03 A2998 RMK A01 T02141029  RH  019%=      5-min Rain = 0
KVA1 240602Z 23006KT 21/M03 A2998 RMK A01 T02131028  RH  020%=      5-min Rain = 0
KVA1 240603Z 23006KT 21/M03 A2998 RMK A01 T02131028  RH  020%=      5-min Rain = 0
KVA1 240604Z 23006KT 21/M03 A2998 RMK A01 T02131028  RH  020%=      5-min Rain = 0
KVA1 240605Z 23006KT 21/M03 A2998 RMK A01 T02121028  RH  020%=      5-min Rain = 0
KVA1 240606Z 23006KT 21/M03 A2998 RMK A01 T02131028  RH  020%=      5-min Rain = 0
KVA1 240607Z 23006KT 21/M03 A2998 RMK A01 T02131027  RH  020%=      5-min Rain = 0
KVA1 240608Z 23006KT 21/M03 A2998 RMK A01 T02121028  RH  020%=      5-min Rain = 0
KVA1 240609Z 23006KT 21/M03 A2998 RMK A01 T02131027  RH  020%=      5-min Rain = 0
KVA1 240610Z 23006KT 21/M03 A2998 RMK A01 T02131027  RH  020%=      5-min Rain = 0
KVA1 240611Z 23006KT 21/M03 A2998 RMK A01 T02121027  RH  020%=      5-min Rain = 0
KVA1 240612Z 23005KT 21/M03 A2998 RMK A01 T02121027  RH  020%=      5-min Rain = 0
KVA1 240613Z 23006KT 21/M03 A2998 RMK A01 T02121027  RH  020%=      5-min Rain = 0
KVA1 240614Z 23006KT 21/M03 A2998 RMK A01 T02121027  RH  020%=      5-min Rain = 0
KVA1 240615Z 23006KT 21/M03 A2998 RMK A01 T02121027  RH  020%=      5-min Rain = 0
KVA1 240616Z 23006KT 21/M03 A2998 RMK A01 T02121027  RH  020%=      5-min Rain = 0
KVA1 240617Z 23006KT 21/M03 A2998 RMK A01 T02121027  RH  020%=      5-min Rain = 0
KVA1 240618Z 23006KT 21/M03 A2998 RMK A01 T02121026  RH  020%=      5-min Rain = 0
KVA1 240619Z 23006KT 21/M03 A2998 RMK A01 T02131026  RH  020%=      5-min Rain = 0
KVA1 240620Z 23006KT 21/M03 A2998 RMK A01 T02141026  RH  020%=      5-min Rain = 0
KVA1 240621Z 22004KT 22/M03 A2998 RMK A01 T02151026  RH  020%=      5-min Rain = 0
KVA1 240622Z 20003KT 22/M03 A2998 RMK A01 T02151026  RH  020%=      5-min Rain = 0
KVA1 240623Z 20004KT 21/M03 A2998 RMK A01 T02121028  RH  020%=      5-min Rain = 0
KVA1 240624Z 20004KT 21/M03 A2998 RMK A01 T02091029  RH  020%=      5-min Rain = 0
KVA1 240625Z 21004KT 21/M03 A2998 RMK A01 T02051030  RH  020%=      5-min Rain = 0
KVA1 240626Z 20004KT 20/M03 A2998 RMK A01 T02031030  RH  021%=      5-min Rain = 0
KVA1 240627Z 21005KT 20/M03 A2998 RMK A01 T02011029  RH  021%=      5-min Rain = 0
KVA1 240628Z 21005KT 20/M03 A2998 RMK A01 T02001030  RH  021%=      5-min Rain = 0
KVA1 240629Z 21005KT 20/M03 A2998 RMK A01 T01991030  RH  021%=      5-min Rain = 0
KVA1 240630Z 22004KT 20/M03 A2998 RMK A01 T01981030  RH  021%=      5-min Rain = 0
KVA1 240631Z 22005KT 20/M03 A2998 RMK A01 T01971030  RH  021%=      5-min Rain = 0
KVA1 240632Z 23005KT 20/M03 A2998 RMK A01 T01971030  RH  021%=      5-min Rain = 0
KVA1 240633Z 23006KT 20/M03 A2998 RMK A01 T01961030  RH  021%=      5-min Rain = 0
KVA1 240634Z 24006KT 20/M03 A2998 RMK A01 T01961030  RH  021%=      5-min Rain = 0
KVA1 240635Z 24006KT 20/M03 A2998 RMK A01 T01951030  RH  022%=      5-min Rain = 0
KVA1 240636Z 25006KT 20/M03 A2998 RMK A01 T01951030  RH  022%=      5-min Rain = 0
KVA1 240637Z 26006KT 20/M03 A2998 RMK A01 T01951029  RH  022%=      5-min Rain = 0
KVA1 240638Z 26007KT 20/M03 A2998 RMK A01 T01951028  RH  022%=      5-min Rain = 0
KVA1 240639Z 25007KT 20/M03 A2998 RMK A01 T01961027  RH  022%=      5-min Rain = 0
KVA1 240640Z 25007KT 20/M03 A2998 RMK A01 T01971027  RH  022%=      5-min Rain = 0
KVA1 240641Z 26006KT 20/M03 A2998 RMK A01 T01971026  RH  022%=      5-min Rain = 0
KVA1 240642Z 26007KT 20/M03 A2998 RMK A01 T01981026  RH  022%=      5-min Rain = 0
KVA1 240643Z 26007KT 20/M03 A2997 RMK A01 T01991026  RH  022%=      5-min Rain = 0
KVA1 240644Z 26007KT 20/M03 A2997 RMK A01 T02001026  RH  022%=      5-min Rain = 0
KVA1 240645Z 25008KT 20/M03 A2997 RMK A01 T02011026  RH  022%=      5-min Rain = 0
KVA1 240646Z 25008KT 20/M03 A2997 RMK A01 T02021025  RH  021%=      5-min Rain = 0
KVA1 240647Z 25008KT 20/M03 A2997 RMK A01 T02041025  RH  021%=      5-min Rain = 0
KVA1 240648Z 25008KT 21/M02 A2997 RMK A01 T02061024  RH  021%=      5-min Rain = 0
KVA1 240649Z 26008KT 21/M02 A2997 RMK A01 T02081024  RH  021%=      5-min Rain = 0
KVA1 240650Z 26008KT 21/M02 A2997 RMK A01 T02091024  RH  021%=      5-min Rain = 0
KVA1 240651Z 26008KT 21/M02 A2997 RMK A01 T02101024  RH  020%=      5-min Rain = 0
KVA1 240652Z 26008KT 21/M02 A2997 RMK A01 T02121024  RH  020%=      5-min Rain = 0
KVA1 240653Z 26008KT 21/M02 A2997 RMK A01 T02121024  RH  020%=      5-min Rain = 0
KVA1 240654Z 25008KT 21/M02 A2997 RMK A01 T02121024  RH  020%=      5-min Rain = 0
KVA1 240655Z 25008KT 21/M03 A2997 RMK A01 T02121025  RH  020%=      5-min Rain = 0
KVA1 240656Z 25008KT 21/M03 A2997 RMK A01 T02131025  RH  020%=      5-min Rain = 0
KVA1 240657Z 25008KT 21/M03 A2997 RMK A01 T02131025  RH  020%=      5-min Rain = 0
KVA1 240658Z 24008KT 21/M03 A2997 RMK A01 T02141025  RH  020%=      5-min Rain = 0
KVA1 240659Z 25007KT 22/M03 A2997 RMK A01 T02151025  RH  020%=      5-min Rain = 0
KVA1 240700Z 25007KT 22/M03 A2997 RMK A01 T02161025  RH  020%=      5-min Rain = 0
KVA1 240701Z 25007KT 22/M03 A2997 RMK A01 T02161025  RH  020%=      5-min Rain = 0
KVA1 240702Z 25007KT 22/M03 A2997 RMK A01 T02161026  RH  020%=      5-min Rain = 0
KVA1 240703Z 25008KT 22/M03 A2997 RMK A01 T02151026  RH  020%=      5-min Rain = 0
KVA1 240704Z 25007KT 21/M03 A2997 RMK A01 T02141026  RH  020%=      5-min Rain = 0
KVA1 240705Z 25008KT 21/M03 A2997 RMK A01 T02141026  RH  020%=      5-min Rain = 0
KVA1 240706Z 25008KT 21/M03 A2997 RMK A01 T02141026  RH  020%=      5-min Rain = 0
KVA1 240707Z 25007KT 21/M03 A2997 RMK A01 T02141026  RH  020%=      5-min Rain = 0
KVA1 240708Z 25007KT 21/M03 A2997 RMK A01 T02141026  RH  020%=      5-min Rain = 0
KVA1 240709Z 25008KT 21/M03 A2997 RMK A01 T02141025  RH  020%=      5-min Rain = 0
KVA1 240710Z 25008KT 21/M03 A2997 RMK A01 T02141025  RH  020%=      5-min Rain = 0
KVA1 240711Z 25007KT 21/M03 A2996 RMK A01 T02131025  RH  020%=      5-min Rain = 0
KVA1 240712Z 26008KT 21/M03 A2996 RMK A01 T02121025  RH  020%=      5-min Rain = 0
KVA1 240713Z 26007KT 21/M03 A2996 RMK A01 T02121025  RH  020%=      5-min Rain = 0
KVA1 240714Z 26007KT 21/M03 A2996 RMK A01 T02121025  RH  020%=      5-min Rain = 0
KVA1 240715Z 26006KT 21/M03 A2996 RMK A01 T02121025  RH  020%=      5-min Rain = 0
KVA1 240716Z 26004KT 21/M03 A2996 RMK A01 T02121026  RH  020%=      5-min Rain = 0
KVA1 240717Z 19003KT 21/M03 A2996 RMK A01 T02121025  RH  020%=      5-min Rain = 0
KVA1 240718Z 19004KT 21/M03 A2996 RMK A01 T02091027  RH  020%=      5-min Rain = 0
KVA1 240719Z 23003KT 20/M03 A2996 RMK A01 T02041027  RH  021%=      5-min Rain = 0
KVA1 240720Z 26005KT 20/M03 A2996 RMK A01 T02021027  RH  021%=      5-min Rain = 0
KVA1 240721Z 26006KT 20/M03 A2996 RMK A01 T02021026  RH  021%=      5-min Rain = 0
KVA1 240722Z 25005KT 20/M03 A2996 RMK A01 T02031026  RH  021%=      5-min Rain = 0
KVA1 240723Z 23003KT 20/M03 A2996 RMK A01 T02041026  RH  021%=      5-min Rain = 0
KVA1 240724Z 22003KT 20/M03 A2996 RMK A01 T02031026  RH  021%=      5-min Rain = 0
KVA1 240725Z 21003KT 20/M03 A2996 RMK A01 T02001027  RH  021%=      5-min Rain = 0
KVA1 240726Z 24004KT 20/M03 A2996 RMK A01 T01981026  RH  022%=      5-min Rain = 0
KVA1 240727Z 25005KT 20/M03 A2996 RMK A01 T01981026  RH  022%=      5-min Rain = 0
KVA1 240728Z 25005KT 20/M03 A2996 RMK A01 T01981026  RH  022%=      5-min Rain = 0
KVA1 240729Z 24004KT 20/M03 A2996 RMK A01 T01981026  RH  022%=      5-min Rain = 0
KVA1 240730Z 24004KT 20/M03 A2996 RMK A01 T01971026  RH  022%=      5-min Rain = 0
KVA1 240731Z 23004KT 20/M03 A2996 RMK A01 T01971026  RH  022%=      5-min Rain = 0
KVA1 240732Z 22004KT 20/M03 A2996 RMK A01 T01961026  RH  022%=      5-min Rain = 0
KVA1 240733Z 22004KT 20/M03 A2996 RMK A01 T01951026  RH  022%=      5-min Rain = 0
KVA1 240734Z 24004KT 19/M03 A2996 RMK A01 T01941027  RH  022%=      5-min Rain = 0
KVA1 240735Z 24005KT 19/M03 A2996 RMK A01 T01931027  RH  022%=      5-min Rain = 0
KVA1 240736Z 25005KT 19/M03 A2996 RMK A01 T01921027  RH  023%=      5-min Rain = 0
KVA1 240737Z 25005KT 19/M03 A2996 RMK A01 T01911027  RH  023%=      5-min Rain = 0
KVA1 240738Z 26005KT 19/M03 A2996 RMK A01 T01911026  RH  023%=      5-min Rain = 0
KVA1 240739Z 26005KT 19/M03 A2996 RMK A01 T01901027  RH  023%=      5-min Rain = 0
KVA1 240740Z 27006KT 19/M03 A2996 RMK A01 T01901027  RH  023%=      5-min Rain = 0
KVA1 240741Z 27006KT 19/M03 A2996 RMK A01 T01911027  RH  023%=      5-min Rain = 0
KVA1 240742Z 27006KT 19/M03 A2996 RMK A01 T01931028  RH  022%=      5-min Rain = 0
KVA1 240743Z 27006KT 20/M03 A2996 RMK A01 T01951027  RH  022%=      5-min Rain = 0
KVA1 240744Z 27006KT 20/M03 A2996 RMK A01 T01991027  RH  022%=      5-min Rain = 0
KVA1 240745Z 27007KT 20/M03 A2996 RMK A01 T02031028  RH  021%=      5-min Rain = 0
KVA1 240746Z 27007KT 21/M03 A2996 RMK A01 T02061028  RH  021%=      5-min Rain = 0
KVA1 240747Z 27006KT 21/M03 A2996 RMK A01 T02091029  RH  020%=      5-min Rain = 0
KVA1 240748Z 27006KT 21/M03 A2995 RMK A01 T02121029  RH  020%=      5-min Rain = 0
KVA1 240749Z 27006KT 21/M03 A2995 RMK A01 T02141029  RH  019%=      5-min Rain = 0
KVA1 240750Z 27007KT 22/M03 A2996 RMK A01 T02151030  RH  019%=      5-min Rain = 0
KVA1 240751Z 27007KT 22/M03 A2996 RMK A01 T02171030  RH  019%=      5-min Rain = 0
KVA1 240752Z 27007KT 22/M03 A2995 RMK A01 T02201030  RH  019%=      5-min Rain = 0
KVA1 240753Z 27006KT 22/M03 A2995 RMK A01 T02211029  RH  018%=      5-min Rain = 0
KVA1 240754Z 27007KT 22/M03 A2995 RMK A01 T02221030  RH  018%=      5-min Rain = 0
KVA1 240755Z 26006KT 22/M03 A2996 RMK A01 T02231030  RH  018%=      5-min Rain = 0
KVA1 240756Z 24003KT 22/M03 A2996 RMK A01 T02231030  RH  018%=      5-min Rain = 0
KVA1 240757Z 21003KT 22/M03 A2996 RMK A01 T02191029  RH  019%=      5-min Rain = 0
KVA1 240758Z 20005KT 21/M03 A2996 RMK A01 T02111030  RH  020%=      5-min Rain = 0
KVA1 240759Z 19005KT 20/M03 A2996 RMK A01 T02041030  RH  020%=      5-min Rain = 0
KVA1 240800Z 19005KT 20/M03 A2996 RMK A01 T01991030  RH  021%=      5-min Rain = 0
KVA1 240801Z 19005KT 20/M03 A2996 RMK A01 T01961029  RH  022%=      5-min Rain = 0
KVA1 240802Z 19005KT 19/M03 A2996 RMK A01 T01941029  RH  022%=      5-min Rain = 0
KVA1 240803Z 20005KT 19/M03 A2996 RMK A01 T01931029  RH  022%=      5-min Rain = 0
KVA1 240804Z 21006KT 19/M03 A2996 RMK A01 T01941030  RH  022%=      5-min Rain = 0
KVA1 240805Z 21005KT 19/M03 A2996 RMK A01 T01941030  RH  022%=      5-min Rain = 0
KVA1 240806Z 21006KT 19/M03 A2996 RMK A01 T01941031  RH  022%=      5-min Rain = 0
KVA1 240807Z 19006KT 19/M03 A2996 RMK A01 T01931030  RH  022%=      5-min Rain = 0
KVA1 240808Z 19006KT 19/M03 A2996 RMK A01 T01921030  RH  022%=      5-min Rain = 0
KVA1 240809Z 19006KT 19/M03 A2996 RMK A01 T01901030  RH  022%=      5-min Rain = 0
KVA1 240810Z 19006KT 19/M03 A2996 RMK A01 T01891031  RH  022%=      5-min Rain = 0
KVA1 240811Z 19006KT 19/M03 A2996 RMK A01 T01881030  RH  023%=      5-min Rain = 0
KVA1 240812Z 20006KT 19/M03 A2996 RMK A01 T01871030  RH  023%=      5-min Rain = 0
KVA1 240813Z 20006KT 19/M03 A2996 RMK A01 T01861030  RH  023%=      5-min Rain = 0
KVA1 240814Z 20005KT 19/M03 A2996 RMK A01 T01871030  RH  023%=      5-min Rain = 0
KVA1 240815Z 20005KT 19/M03 A2996 RMK A01 T01891030  RH  023%=      5-min Rain = 0
KVA1 240816Z 20006KT 19/M03 A2996 RMK A01 T01921029  RH  022%=      5-min Rain = 0
KVA1 240817Z 20006KT 19/M03 A2996 RMK A01 T01941029  RH  022%=      5-min Rain = 0
KVA1 240818Z 20006KT 20/M03 A2996 RMK A01 T01951030  RH  022%=      5-min Rain = 0
KVA1 240819Z 20006KT 20/M03 A2996 RMK A01 T01951030  RH  022%=      5-min Rain = 0
KVA1 240820Z 19006KT 20/M03 A2996 RMK A01 T01951031  RH  021%=      5-min Rain = 0
KVA1 240821Z 20005KT 20/M03 A2996 RMK A01 T01951031  RH  021%=      5-min Rain = 0
KVA1 240822Z 19006KT 20/M03 A2996 RMK A01 T01951031  RH  022%=      5-min Rain = 0
KVA1 240823Z 20006KT 19/M03 A2996 RMK A01 T01941031  RH  022%=      5-min Rain = 0
KVA1 240824Z 20006KT 19/M03 A2996 RMK A01 T01931031  RH  022%=      5-min Rain = 0
KVA1 240825Z 19007KT 19/M03 A2996 RMK A01 T01921031  RH  022%=      5-min Rain = 0
KVA1 240826Z 19006KT 19/M03 A2996 RMK A01 T01911031  RH  022%=      5-min Rain = 0
KVA1 240827Z 20007KT 19/M03 A2996 RMK A01 T01901031  RH  022%=      5-min Rain = 0
KVA1 240828Z 20008KT 19/M03 A2996 RMK A01 T01911031  RH  022%=      5-min Rain = 0
KVA1 240829Z 19008KT 19/M03 A2996 RMK A01 T01921032  RH  022%=      5-min Rain = 0
KVA1 240830Z 19007KT 19/M03 A2996 RMK A01 T01921032  RH  022%=      5-min Rain = 0
KVA1 240831Z 20007KT 19/M03 A2996 RMK A01 T01921032  RH  022%=      5-min Rain = 0
KVA1 240832Z 20006KT 19/M03 A2996 RMK A01 T01911032  RH  022%=      5-min Rain = 0
KVA1 240833Z 20005KT 19/M03 A2996 RMK A01 T01911031  RH  022%=      5-min Rain = 0
KVA1 240834Z 20006KT 19/M03 A2997 RMK A01 T01901032  RH  022%=      5-min Rain = 0
KVA1 240835Z 20006KT 19/M03 A2997 RMK A01 T01891032  RH  022%=      5-min Rain = 0
KVA1 240836Z 20006KT 19/M03 A2997 RMK A01 T01891031  RH  022%=      5-min Rain = 0
KVA1 240837Z 21006KT 19/M03 A2997 RMK A01 T01881031  RH  022%=      5-min Rain = 0
KVA1 240838Z 20007KT 19/M03 A2997 RMK A01 T01871031  RH  023%=      5-min Rain = 0
KVA1 240839Z 20006KT 19/M03 A2997 RMK A01 T01861031  RH  023%=      5-min Rain = 0
KVA1 240840Z 21005KT 19/M03 A2997 RMK A01 T01861030  RH  023%=      5-min Rain = 0
KVA1 240841Z 21004KT 19/M03 A2997 RMK A01 T01861030  RH  023%=      5-min Rain = 0
KVA1 240842Z 22003KT 19/M03 A2997 RMK A01 T01861031  RH  023%=      5-min Rain = 0
KVA1 240843Z 24003KT 19/M03 A2997 RMK A01 T01851030  RH  023%=      5-min Rain = 0
KVA1 240844Z 23005KT 19/M03 A2997 RMK A01 T01851030  RH  023%=      5-min Rain = 0
KVA1 240845Z 22007KT 19/M03 A2997 RMK A01 T01851030  RH  023%=      5-min Rain = 0
KVA1 240846Z 22007KT 19/M03 A2997 RMK A01 T01851030  RH  023%=      5-min Rain = 0
KVA1 240847Z 23007KT 19/M03 A2997 RMK A01 T01851030  RH  023%=      5-min Rain = 0
KVA1 240848Z 23006KT 19/M03 A2997 RMK A01 T01851030  RH  023%=      5-min Rain = 0
KVA1 240849Z 23006KT 19/M03 A2997 RMK A01 T01851030  RH  023%=      5-min Rain = 0
KVA1 240850Z 23006KT 19/M03 A2997 RMK A01 T01851030  RH  023%=      5-min Rain = 0
KVA1 240851Z 23006KT 19/M03 A2997 RMK A01 T01851030  RH  023%=      5-min Rain = 0
KVA1 240852Z 23006KT 19/M03 A2997 RMK A01 T01851030  RH  023%=      5-min Rain = 0
KVA1 240853Z 23006KT 18/M03 A2997 RMK A01 T01841030  RH  023%=      5-min Rain = 0
KVA1 240854Z 23006KT 18/M03 A2997 RMK A01 T01841030  RH  023%=      5-min Rain = 0
KVA1 240855Z 23007KT 18/M03 A2997 RMK A01 T01831030  RH  023%=      5-min Rain = 0
KVA1 240856Z 22007KT 18/M03 A2997 RMK A01 T01831029  RH  023%=      5-min Rain = 0
KVA1 240857Z 23007KT 18/M03 A2997 RMK A01 T01831029  RH  023%=      5-min Rain = 0
KVA1 240858Z 23007KT 19/M03 A2997 RMK A01 T01851028  RH  023%=      5-min Rain = 0
KVA1 240859Z 23006KT 19/M03 A2997 RMK A01 T01851029  RH  023%=      5-min Rain = 0
KVA1 240900Z 23006KT 19/M03 A2997 RMK A01 T01851029  RH  023%=      5-min Rain = 0
KVA1 240901Z 23007KT 19/M03 A2997 RMK A01 T01861029  RH  023%=      5-min Rain = 0
KVA1 240902Z 23007KT 19/M03 A2997 RMK A01 T01851029  RH  023%=      5-min Rain = 0
KVA1 240903Z 23007KT 19/M03 A2997 RMK A01 T01851029  RH  023%=      5-min Rain = 0
KVA1 240904Z 23007KT 19/M03 A2997 RMK A01 T01851029  RH  023%=      5-min Rain = 0
KVA1 240905Z 24007KT 19/M03 A2997 RMK A01 T01871029  RH  023%=      5-min Rain = 0
KVA1 240906Z 24006KT 19/M03 A2997 RMK A01 T01871029  RH  023%=      5-min Rain = 0
KVA1 240907Z 23006KT 19/M03 A2997 RMK A01 T01871030  RH  023%=      5-min Rain = 0
KVA1 240908Z 23007KT 19/M03 A2997 RMK A01 T01871030  RH  023%=      5-min Rain = 0
KVA1 240909Z 22007KT 19/M03 A2997 RMK A01 T01871030  RH  023%=      5-min Rain = 0
KVA1 240910Z 23007KT 19/M03 A2997 RMK A01 T01881029  RH  023%=      5-min Rain = 0
KVA1 240911Z 23007KT 19/M03 A2997 RMK A01 T01891029  RH  023%=      5-min Rain = 0
KVA1 240912Z 24007KT 19/M03 A2997 RMK A01 T01881030  RH  023%=      5-min Rain = 0
KVA1 240913Z 23007KT 19/M03 A2997 RMK A01 T01871031  RH  023%=      5-min Rain = 0
KVA1 240914Z 24007KT 19/M03 A2997 RMK A01 T01871031  RH  023%=      5-min Rain = 0
KVA1 240915Z 25006KT 19/M03 A2997 RMK A01 T01871030  RH  023%=      5-min Rain = 0
KVA1 240916Z 25007KT 19/M03 A2997 RMK A01 T01861030  RH  023%=      5-min Rain = 0
KVA1 240917Z 25007KT 19/M03 A2997 RMK A01 T01861030  RH  023%=      5-min Rain = 0
KVA1 240918Z 24007KT 19/M03 A2997 RMK A01 T01851031  RH  023%=      5-min Rain = 0
KVA1 240919Z 24007KT 19/M03 A2997 RMK A01 T01851031  RH  023%=      5-min Rain = 0
KVA1 240920Z 25007KT 19/M03 A2997 RMK A01 T01851030  RH  023%=      5-min Rain = 0
KVA1 240921Z 25007KT 19/M03 A2998 RMK A01 T01851030  RH  023%=      5-min Rain = 0
KVA1 240922Z 25007KT 19/M03 A2998 RMK A01 T01851030  RH  023%=      5-min Rain = 0
KVA1 240923Z 25006KT 19/M03 A2998 RMK A01 T01851030  RH  023%=      5-min Rain = 0
KVA1 240924Z 25006KT 19/M03 A2998 RMK A01 T01851031  RH  023%=      5-min Rain = 0
KVA1 240925Z 25006KT 19/M03 A2998 RMK A01 T01861030  RH  023%=      5-min Rain = 0
KVA1 240926Z 26006KT 19/M03 A2998 RMK A01 T01871030  RH  023%=      5-min Rain = 0
KVA1 240927Z 27006KT 19/M03 A2998 RMK A01 T01861030  RH  023%=      5-min Rain = 0
KVA1 240928Z 27005KT 19/M03 A2998 RMK A01 T01861030  RH  023%=      5-min Rain = 0
KVA1 240929Z 27005KT 19/M03 A2998 RMK A01 T01851030  RH  023%=      5-min Rain = 0
KVA1 240930Z 28005KT 18/M03 A2998 RMK A01 T01841030  RH  023%=      5-min Rain = 0
KVA1 240931Z 28006KT 18/M03 A2998 RMK A01 T01821030  RH  023%=      5-min Rain = 0
KVA1 240932Z 28006KT 18/M03 A2998 RMK A01 T01801030  RH  024%=      5-min Rain = 0
KVA1 240933Z 28006KT 18/M03 A2998 RMK A01 T01791030  RH  024%=      5-min Rain = 0
KVA1 240934Z 28006KT 18/M03 A2998 RMK A01 T01781030  RH  024%=      5-min Rain = 0
KVA1 240935Z 28006KT 18/M03 A2998 RMK A01 T01771030  RH  024%=      5-min Rain = 0
KVA1 240936Z 27006KT 18/M03 A2998 RMK A01 T01761030  RH  024%=      5-min Rain = 0
KVA1 240937Z 27007KT 18/M03 A2998 RMK A01 T01761031  RH  024%=      5-min Rain = 0
KVA1 240938Z 26007KT 18/M03 A2998 RMK A01 T01751031  RH  024%=      5-min Rain = 0
KVA1 240939Z 26006KT 18/M03 A2998 RMK A01 T01761031  RH  024%=      5-min Rain = 0
KVA1 240940Z 26006KT 18/M03 A2998 RMK A01 T01761031  RH  024%=      5-min Rain = 0
KVA1 240941Z 25006KT 18/M03 A2998 RMK A01 T01761030  RH  024%=      5-min Rain = 0
KVA1 240942Z 24007KT 18/M03 A2998 RMK A01 T01781030  RH  024%=      5-min Rain = 0
KVA1 240943Z 24007KT 18/M03 A2998 RMK A01 T01781030  RH  024%=      5-min Rain = 0
KVA1 240944Z 23007KT 18/M03 A2998 RMK A01 T01781030  RH  024%=      5-min Rain = 0
KVA1 240945Z 23007KT 18/M03 A2998 RMK A01 T01781030  RH  024%=      5-min Rain = 0
KVA1 240946Z 23007KT 18/M03 A2998 RMK A01 T01791030  RH  024%=      5-min Rain = 0
KVA1 240947Z 23007KT 18/M03 A2998 RMK A01 T01781030  RH  024%=      5-min Rain = 0
KVA1 240948Z 23007KT 18/M03 A2998 RMK A01 T01791030  RH  024%=      5-min Rain = 0
KVA1 240949Z 23007KT 18/M03 A2998 RMK A01 T01781029  RH  024%=      5-min Rain = 0
KVA1 240950Z 23008KT 18/M03 A2998 RMK A01 T01781029  RH  024%=      5-min Rain = 0
KVA1 240951Z 23008KT 18/M03 A2998 RMK A01 T01781029  RH  024%=      5-min Rain = 0
KVA1 240952Z 22008KT 18/M03 A2998 RMK A01 T01781028  RH  024%=      5-min Rain = 0
KVA1 240953Z 22008KT 18/M03 A2998 RMK A01 T01791029  RH  024%=      5-min Rain = 0
KVA1 240954Z 22007KT 18/M03 A2998 RMK A01 T01791029  RH  024%=      5-min Rain = 0
KVA1 240955Z 23007KT 18/M03 A2998 RMK A01 T01811029  RH  024%=      5-min Rain = 0
KVA1 240956Z 22008KT 18/M03 A2998 RMK A01 T01821030  RH  023%=      5-min Rain = 0
KVA1 240957Z 22007KT 18/M03 A2998 RMK A01 T01841030  RH  023%=      5-min Rain = 0
KVA1 240958Z 22006KT 19/M03 A2998 RMK A01 T01851030  RH  023%=      5-min Rain = 0
KVA1 240959Z 22008KT 19/M03 A2998 RMK A01 T01851030  RH  023%=      5-min Rain = 0
KVA1 241000Z 22008KT 19/M03 A2998 RMK A01 T01851030  RH  023%=      5-min Rain = 0
KVA1 241001Z 22007KT 19/M03 A2998 RMK A01 T01851031  RH  023%=      5-min Rain = 0
KVA1 241002Z 22007KT 19/M03 A2998 RMK A01 T01861031  RH  023%=      5-min Rain = 0
KVA1 241003Z 22007KT 19/M03 A2998 RMK A01 T01851031  RH  023%=      5-min Rain = 0
KVA1 241004Z 22007KT 19/M03 A2998 RMK A01 T01851032  RH  023%=      5-min Rain = 0
KVA1 241005Z 22007KT 19/M03 A2998 RMK A01 T01851032  RH  023%=      5-min Rain = 0
KVA1 241006Z 22008KT 19/M03 A2998 RMK A01 T01851033  RH  023%=      5-min Rain = 0
KVA1 241007Z 22008KT 19/M03 A2998 RMK A01 T01851033  RH  022%=      5-min Rain = 0
KVA1 241008Z 22007KT 19/M03 A2998 RMK A01 T01851033  RH  022%=      5-min Rain = 0
KVA1 241009Z 22008KT 19/M03 A2998 RMK A01 T01851033  RH  022%=      5-min Rain = 0
KVA1 241010Z 22008KT 19/M03 A2998 RMK A01 T01851034  RH  022%=      5-min Rain = 0
KVA1 241011Z 22008KT 19/M03 A2998 RMK A01 T01851034  RH  022%=      5-min Rain = 0
KVA1 241012Z 22008KT 18/M04 A2998 RMK A01 T01841035  RH  022%=      5-min Rain = 0
KVA1 241013Z 22008KT 18/M04 A2998 RMK A01 T01841035  RH  022%=      5-min Rain = 0
KVA1 241014Z 22008KT 18/M04 A2998 RMK A01 T01841035  RH  022%=      5-min Rain = 0
KVA1 241015Z 22008KT 18/M04 A2998 RMK A01 T01841035  RH  022%=      5-min Rain = 0
KVA1 241016Z 22009KT 18/M04 A2998 RMK A01 T01841036  RH  022%=      5-min Rain = 0
KVA1 241017Z 22009KT 18/M04 A2998 RMK A01 T01841036  RH  022%=      5-min Rain = 0
KVA1 241018Z 22008KT 18/M04 A2998 RMK A01 T01841036  RH  022%=      5-min Rain = 0
KVA1 241019Z 23009KT 18/M04 A2998 RMK A01 T01831036  RH  022%=      5-min Rain = 0
KVA1 241020Z 22008KT 18/M04 A2998 RMK A01 T01821036  RH  022%=      5-min Rain = 0
KVA1 241021Z 23008KT 18/M04 A2998 RMK A01 T01821036  RH  022%=      5-min Rain = 0
KVA1 241022Z 23008KT 18/M04 A2998 RMK A01 T01811036  RH  023%=      5-min Rain = 0
KVA1 241023Z 22008KT 18/M04 A2998 RMK A01 T01801036  RH  023%=      5-min Rain = 0
KVA1 241024Z 23008KT 18/M04 A2998 RMK A01 T01791037  RH  023%=      5-min Rain = 0
KVA1 241025Z 23008KT 18/M04 A2998 RMK A01 T01791037  RH  023%=      5-min Rain = 0
KVA1 241026Z 23009KT 18/M04 A2999 RMK A01 T01791037  RH  023%=      5-min Rain = 0
KVA1 241027Z 22009KT 18/M04 A2999 RMK A01 T01791037  RH  023%=      5-min Rain = 0
KVA1 241028Z 22009KT 18/M04 A2999 RMK A01 T01791037  RH  023%=      5-min Rain = 0
KVA1 241029Z 22009KT 18/M04 A2999 RMK A01 T01791037  RH  023%=      5-min Rain = 0
KVA1 241030Z 22009KT 18/M04 A2999 RMK A01 T01801037  RH  023%=      5-min Rain = 0
KVA1 241031Z 22009KT 18/M04 A2998 RMK A01 T01801037  RH  023%=      5-min Rain = 0
KVA1 241032Z 22008KT 18/M04 A2999 RMK A01 T01801037  RH  023%=      5-min Rain = 0
KVA1 241033Z 21008KT 18/M04 A2999 RMK A01 T01811037  RH  022%=      5-min Rain = 0
KVA1 241034Z 22008KT 18/M04 A2999 RMK A01 T01801037  RH  022%=      5-min Rain = 0
KVA1 241035Z 21008KT 18/M04 A2999 RMK A01 T01801037  RH  022%=      5-min Rain = 0
KVA1 241036Z 22009KT 18/M04 A2999 RMK A01 T01811037  RH  022%=      5-min Rain = 0
KVA1 241037Z 22008KT 18/M04 A2999 RMK A01 T01801037  RH  022%=      5-min Rain = 0
KVA1 241038Z 21008KT 18/M04 A2999 RMK A01 T01801037  RH  023%=      5-min Rain = 0
KVA1 241039Z 21008KT 18/M04 A2999 RMK A01 T01801037  RH  023%=      5-min Rain = 0
KVA1 241040Z 21009KT 18/M04 A2999 RMK A01 T01801037  RH  023%=      5-min Rain = 0
KVA1 241041Z 22009KT 18/M04 A2999 RMK A01 T01801037  RH  023%=      5-min Rain = 0
KVA1 241042Z 22009KT 18/M04 A2999 RMK A01 T01811036  RH  023%=      5-min Rain = 0
KVA1 241043Z 22008KT 18/M04 A2999 RMK A01 T01801036  RH  023%=      5-min Rain = 0
KVA1 241044Z 21008KT 18/M04 A2999 RMK A01 T01801036  RH  023%=      5-min Rain = 0
KVA1 241045Z 21008KT 18/M04 A2999 RMK A01 T01791036  RH  023%=      5-min Rain = 0
KVA1 241046Z 21008KT 18/M04 A2999 RMK A01 T01781036  RH  023%=      5-min Rain = 0
KVA1 241047Z 21008KT 18/M04 A2999 RMK A01 T01771036  RH  023%=      5-min Rain = 0
KVA1 241048Z 21008KT 18/M04 A2999 RMK A01 T01751036  RH  023%=      5-min Rain = 0
KVA1 241049Z 21007KT 18/M04 A2999 RMK A01 T01751035  RH  024%=      5-min Rain = 0
KVA1 241050Z 22007KT 17/M04 A2999 RMK A01 T01741035  RH  024%=      5-min Rain = 0
KVA1 241051Z 22007KT 17/M04 A2999 RMK A01 T01721035  RH  024%=      5-min Rain = 0
KVA1 241052Z 22006KT 17/M04 A2999 RMK A01 T01711035  RH  024%=      5-min Rain = 0
KVA1 241053Z 22006KT 17/M03 A2999 RMK A01 T01701034  RH  025%=      5-min Rain = 0
KVA1 241054Z 22006KT 17/M03 A2999 RMK A01 T01691034  RH  025%=      5-min Rain = 0
KVA1 241055Z 22006KT 17/M03 A2999 RMK A01 T01681033  RH  025%=      5-min Rain = 0
KVA1 241056Z 22007KT 17/M03 A2999 RMK A01 T01671033  RH  025%=      5-min Rain = 0
KVA1 241057Z 21006KT 17/M03 A2999 RMK A01 T01671033  RH  025%=      5-min Rain = 0
KVA1 241058Z 22006KT 17/M03 A2999 RMK A01 T01671033  RH  025%=      5-min Rain = 0
KVA1 241059Z 21005KT 17/M03 A2999 RMK A01 T01671032  RH  025%=      5-min Rain = 0
KVA1 241100Z 21005KT 17/M03 A2999 RMK A01 T01661033  RH  025%=      5-min Rain = 0
KVA1 241101Z 21005KT 17/M03 A2999 RMK A01 T01661033  RH  026%=      5-min Rain = 0
KVA1 241102Z 21006KT 17/M03 A2999 RMK A01 T01651033  RH  026%=      5-min Rain = 0
KVA1 241103Z 20006KT 16/M03 A2999 RMK A01 T01641033  RH  026%=      5-min Rain = 0
KVA1 241104Z 20006KT 16/M03 A2999 RMK A01 T01631033  RH  026%=      5-min Rain = 0
KVA1 241105Z 20006KT 16/M03 A2999 RMK A01 T01631032  RH  026%=      5-min Rain = 0
KVA1 241106Z 20006KT 16/M03 A2999 RMK A01 T01621033  RH  026%=      5-min Rain = 0
KVA1 241107Z 20006KT 16/M03 A2999 RMK A01 T01611033  RH  026%=      5-min Rain = 0
KVA1 241108Z 20006KT 16/M03 A2999 RMK A01 T01601032  RH  027%=      5-min Rain = 0
KVA1 241109Z 21006KT 16/M03 A2999 RMK A01 T01601032  RH  027%=      5-min Rain = 0
KVA1 241110Z 21006KT 16/M03 A2999 RMK A01 T01591032  RH  027%=      5-min Rain = 0
KVA1 241111Z 21006KT 16/M03 A2999 RMK A01 T01581032  RH  027%=      5-min Rain = 0
KVA1 241112Z 21007KT 16/M03 A2999 RMK A01 T01581032  RH  027%=      5-min Rain = 0
KVA1 241113Z 21008KT 16/M03 A2999 RMK A01 T01581031  RH  027%=      5-min Rain = 0
KVA1 241114Z 22008KT 16/M03 A2999 RMK A01 T01581032  RH  027%=      5-min Rain = 0
KVA1 241115Z 22008KT 16/M03 A2999 RMK A01 T01591032  RH  027%=      5-min Rain = 0
KVA1 241116Z 22008KT 16/M03 A2999 RMK A01 T01611032  RH  027%=      5-min Rain = 0
KVA1 241117Z 22008KT 16/M03 A2999 RMK A01 T01621033  RH  026%=      5-min Rain = 0
KVA1 241118Z 22007KT 16/M03 A2999 RMK A01 T01621033  RH  026%=      5-min Rain = 0
KVA1 241119Z 21007KT 16/M03 A2999 RMK A01 T01621034  RH  026%=      5-min Rain = 0
KVA1 241120Z 22007KT 16/M03 A2999 RMK A01 T01621034  RH  026%=      5-min Rain = 0
KVA1 241121Z 22007KT 16/M03 A2999 RMK A01 T01621034  RH  026%=      5-min Rain = 0
KVA1 241122Z 21007KT 16/M03 A2999 RMK A01 T01621034  RH  026%=      5-min Rain = 0
KVA1 241123Z 21008KT 16/M03 A2999 RMK A01 T01621034  RH  026%=      5-min Rain = 0
KVA1 241124Z 21008KT 16/M03 A2999 RMK A01 T01621034  RH  026%=      5-min Rain = 0
KVA1 241125Z 21009KT 16/M03 A2999 RMK A01 T01621034  RH  026%=      5-min Rain = 0
KVA1 241126Z 21008KT 16/M03 A2999 RMK A01 T01631034  RH  026%=      5-min Rain = 0
KVA1 241127Z 21008KT 16/M03 A2999 RMK A01 T01641033  RH  026%=      5-min Rain = 0
KVA1 241128Z 21008KT 17/M03 A2999 RMK A01 T01651033  RH  025%=      5-min Rain = 0
KVA1 241129Z 21008KT 17/M03 A2999 RMK A01 T01661033  RH  025%=      5-min Rain = 0
KVA1 241130Z 22008KT 17/M03 A2999 RMK A01 T01661034  RH  025%=      5-min Rain = 0
KVA1 241131Z 22008KT 17/M03 A2999 RMK A01 T01671034  RH  025%=      5-min Rain = 0
KVA1 241132Z 22008KT 17/M03 A2999 RMK A01 T01671034  RH  025%=      5-min Rain = 0
KVA1 241133Z 21008KT 17/M03 A2999 RMK A01 T01681034  RH  025%=      5-min Rain = 0
KVA1 241134Z 22008KT 17/M03 A2999 RMK A01 T01681034  RH  025%=      5-min Rain = 0
KVA1 241135Z 22008KT 17/M04 A2999 RMK A01 T01681035  RH  025%=      5-min Rain = 0
KVA1 241136Z 22008KT 17/M04 A2999 RMK A01 T01691035  RH  025%=      5-min Rain = 0
KVA1 241137Z 21008KT 17/M04 A2999 RMK A01 T01691035  RH  025%=      5-min Rain = 0
KVA1 241138Z 21008KT 17/M04 A2999 RMK A01 T01691035  RH  024%=      5-min Rain = 0
KVA1 241139Z 21008KT 17/M04 A2999 RMK A01 T01701035  RH  024%=      5-min Rain = 0
KVA1 241140Z 21008KT 17/M04 A2999 RMK A01 T01711035  RH  024%=      5-min Rain = 0
KVA1 241141Z 21007KT 17/M04 A2999 RMK A01 T01701035  RH  024%=      5-min Rain = 0
KVA1 241142Z 21008KT 17/M04 A2999 RMK A01 T01701036  RH  024%=      5-min Rain = 0
KVA1 241143Z 21008KT 17/M04 A2999 RMK A01 T01701035  RH  024%=      5-min Rain = 0
KVA1 241144Z 22008KT 17/M04 A2999 RMK A01 T01701035  RH  024%=      5-min Rain = 0
KVA1 241145Z 21008KT 17/M04 A30 RMK A01 T01701035  RH  024%=      5-min Rain = 0
KVA1 241146Z 22008KT 17/M04 A30 RMK A01 T01701035  RH  024%=      5-min Rain = 0
KVA1 241147Z 22007KT 17/M04 A30 RMK A01 T01701035  RH  024%=      5-min Rain = 0
KVA1 241148Z 21007KT 17/M04 A30 RMK A01 T01701035  RH  024%=      5-min Rain = 0
KVA1 241149Z 22007KT 17/M04 A30 RMK A01 T01701036  RH  024%=      5-min Rain = 0
KVA1 241150Z 24004KT 17/M04 A30 RMK A01 T01691036  RH  024%=      5-min Rain = 0
KVA1 241151Z 03011KT 17/M04 A3002 RMK A01 T01691036  RH  024%=      5-min Rain = 0
KVA1 241152Z 04011KT 17/M03 A3002 RMK A01 T01671033  RH  025%=      5-min Rain = 0
KVA1 241153Z 06010KT 16/M03 A3002 RMK A01 T01621032  RH  026%=      5-min Rain = 0
KVA1 241154Z 14005KT 16/M03 A3001 RMK A01 T01601033  RH  026%=      5-min Rain = 0
KVA1 241155Z 18007KT 17/M03 A3001 RMK A01 T01651033  RH  025%=      5-min Rain = 0
KVA1 241156Z 17007KT 17/M03 A3001 RMK A01 T01671032  RH  025%=      5-min Rain = 0
KVA1 241157Z 16004KT 16/M03 A3001 RMK A01 T01641032  RH  026%=      5-min Rain = 0
KVA1 241158Z 03003KT 16/M03 A3002 RMK A01 T01621032  RH  026%=      5-min Rain = 0
KVA1 241159Z 01007KT 16/M03 A3002 RMK A01 T01601033  RH  026%=      5-min Rain = 0
KVA1 241200Z 01007KT 16/M03 A3002 RMK A01 T01601033  RH  026%=      5-min Rain = 0
KVA1 241201Z 02003KT 16/M03 A3002 RMK A01 T01621033  RH  026%=      5-min Rain = 0
KVA1 241202Z 17002KT 16/M03 A3001 RMK A01 T01631033  RH  026%=      5-min Rain = 0
KVA1 241203Z 18005KT 17/M03 A3001 RMK A01 T01651033  RH  025%=      5-min Rain = 0
KVA1 241204Z 19004KT 17/M03 A3001 RMK A01 T01661034  RH  025%=      5-min Rain = 0
KVA1 241205Z 33002KT 17/M03 A3002 RMK A01 T01661033  RH  025%=      5-min Rain = 0
KVA1 241206Z 04004KT 17/M03 A3002 RMK A01 T01661033  RH  025%=      5-min Rain = 0
KVA1 241207Z 04006KT 17/M03 A3003 RMK A01 T01661033  RH  025%=      5-min Rain = 0
KVA1 241208Z 04007KT 17/M03 A3003 RMK A01 T01671033  RH  025%=      5-min Rain = 0
KVA1 241209Z 05004KT 17/M03 A3003 RMK A01 T01661032  RH  025%=      5-min Rain = 0
KVA1 241210Z 11002KT 17/M03 A3003 RMK A01 T01671033  RH  025%=      5-min Rain = 0
KVA1 241211Z 22002KT 17/M03 A3002 RMK A01 T01681032  RH  025%=      5-min Rain = 0
KVA1 241212Z 26003KT 17/M03 A3002 RMK A01 T01691032  RH  025%=      5-min Rain = 0
KVA1 241213Z 30004KT 17/M03 A3002 RMK A01 T01671032  RH  025%=      5-min Rain = 0
KVA1 241214Z 31007KT 17/M03 A3002 RMK A01 T01651032  RH  026%=      5-min Rain = 0
KVA1 241215Z 32007KT 16/M03 A3002 RMK A01 T01631032  RH  026%=      5-min Rain = 0
KVA1 241216Z 32004KT 16/M03 A3002 RMK A01 T01631032  RH  026%=      5-min Rain = 0
KVA1 241217Z 34002KT 16/M03 A3002 RMK A01 T01631031  RH  026%=      5-min Rain = 0
KVA1 241218Z 02001KT 16/M03 A3002 RMK A01 T01631031  RH  026%=      5-min Rain = 0
KVA1 241219Z 10001KT 16/M03 A3002 RMK A01 T01641031  RH  026%=      5-min Rain = 0
KVA1 241220Z 12002KT 16/M03 A3002 RMK A01 T01641031  RH  026%=      5-min Rain = 0
KVA1 241221Z 14003KT 16/M03 A3002 RMK A01 T01641031  RH  026%=      5-min Rain = 0
KVA1 241222Z 15002KT 16/M03 A3002 RMK A01 T01641031  RH  026%=      5-min Rain = 0
KVA1 241223Z 18000KT 16/M03 A3002 RMK A01 T01641031  RH  026%=      5-min Rain = 0
KVA1 241224Z 30003KT 17/M03 A3002 RMK A01 T01651030  RH  026%=      5-min Rain = 0
KVA1 241225Z 30005KT 16/M03 A3002 RMK A01 T01641029  RH  026%=      5-min Rain = 0
KVA1 241226Z 30004KT 16/M03 A3002 RMK A01 T01621031  RH  026%=      5-min Rain = 0
KVA1 241227Z 30002KT 16/M03 A3002 RMK A01 T01611031  RH  027%=      5-min Rain = 0
KVA1 241228Z 30003KT 16/M03 A3002 RMK A01 T01601031  RH  027%=      5-min Rain = 0
KVA1 241229Z 29003KT 16/M03 A3003 RMK A01 T01591031  RH  027%=      5-min Rain = 0
KVA1 241230Z 31002KT 16/M03 A3003 RMK A01 T01581031  RH  027%=      5-min Rain = 0
KVA1 241231Z 29001KT 16/M03 A3003 RMK A01 T01571030  RH  027%=      5-min Rain = 0
KVA1 241232Z 28002KT 16/M03 A3003 RMK A01 T01571030  RH  027%=      5-min Rain = 0
KVA1 241233Z 29003KT 16/M03 A3003 RMK A01 T01571030  RH  028%=      5-min Rain = 0
KVA1 241234Z 30003KT 16/M03 A3003 RMK A01 T01561029  RH  028%=      5-min Rain = 0
KVA1 241235Z 30003KT 16/M03 A3002 RMK A01 T01561028  RH  028%=      5-min Rain = 0
KVA1 241236Z 32003KT 16/M03 A3002 RMK A01 T01561028  RH  028%=      5-min Rain = 0
KVA1 241237Z 32003KT 16/M03 A3002 RMK A01 T01571029  RH  028%=      5-min Rain = 0
KVA1 241238Z 31004KT 16/M03 A3002 RMK A01 T01581028  RH  028%=      5-min Rain = 0
KVA1 241239Z 32005KT 16/M03 A3002 RMK A01 T01591027  RH  028%=      5-min Rain = 0
KVA1 241240Z 31004KT 16/M03 A3002 RMK A01 T01601026  RH  028%=      5-min Rain = 0
KVA1 241241Z 28001KT 16/M03 A3002 RMK A01 T01611026  RH  028%=      5-min Rain = 0
KVA1 241242Z 17002KT 16/M03 A3002 RMK A01 T01621026  RH  027%=      5-min Rain = 0
KVA1 241243Z 20002KT 16/M03 A3002 RMK A01 T01641028  RH  027%=      5-min Rain = 0
KVA1 241244Z 24002KT 17/M03 A3002 RMK A01 T01651029  RH  026%=      5-min Rain = 0
KVA1 241245Z 25003KT 17/M03 A3002 RMK A01 T01671029  RH  026%=      5-min Rain = 0
KVA1 241246Z 25003KT 17/M03 A3002 RMK A01 T01681027  RH  026%=      5-min Rain = 0
KVA1 241247Z 27005KT 17/M03 A3002 RMK A01 T01691025  RH  026%=      5-min Rain = 0
KVA1 241248Z 27005KT 17/M03 A3002 RMK A01 T01691025  RH  027%=      5-min Rain = 0
KVA1 241249Z 28003KT 17/M03 A3002 RMK A01 T01691025  RH  027%=      5-min Rain = 0
KVA1 241250Z 29002KT 17/M02 A3003 RMK A01 T01691024  RH  027%=      5-min Rain = 0
KVA1 241251Z 11001KT 17/M02 A3003 RMK A01 T01701024  RH  026%=      5-min Rain = 0
KVA1 241252Z 12005KT 17/M02 A3003 RMK A01 T01721023  RH  026%=      5-min Rain = 0
KVA1 241253Z 13004KT 17/M02 A3003 RMK A01 T01731023  RH  026%=      5-min Rain = 0
KVA1 241254Z 15002KT 18/M03 A3003 RMK A01 T01751025  RH  026%=      5-min Rain = 0
KVA1 241255Z 15002KT 18/M03 A3003 RMK A01 T01751026  RH  025%=      5-min Rain = 0
KVA1 241256Z 15002KT 18/M03 A3003 RMK A01 T01761025  RH  025%=      5-min Rain = 0
KVA1 241257Z 16002KT 18/M03 A3003 RMK A01 T01771025  RH  025%=      5-min Rain = 0
KVA1 241258Z 19001KT 18/M03 A3003 RMK A01 T01781027  RH  025%=      5-min Rain = 0
KVA1 241259Z 20000KT 18/M03 A3003 RMK A01 T01791026  RH  025%=      5-min Rain = 0
KVA1 241300Z 00000KT 18/M03 A3003 RMK A01 T01791027  RH  025%=      5-min Rain = 0
KVA1 241301Z 13001KT 18/M03 A3003 RMK A01 T01801025  RH  025%=      5-min Rain = 0
KVA1 241302Z 12002KT 18/M03 A3003 RMK A01 T01821025  RH  024%=      5-min Rain = 0
KVA1 241303Z 12000KT 18/M02 A3003 RMK A01 T01831024  RH  024%=      5-min Rain = 0
KVA1 241304Z 32001KT 19/M03 A3003 RMK A01 T01851025  RH  024%=      5-min Rain = 0
KVA1 241305Z 30001KT 19/M03 A3003 RMK A01 T01851025  RH  024%=      5-min Rain = 0
KVA1 241306Z 28000KT 19/M03 A3003 RMK A01 T01851026  RH  024%=      5-min Rain = 0
KVA1 241307Z 25001KT 19/M03 A3003 RMK A01 T01861025  RH  024%=      5-min Rain = 0
KVA1 241308Z 25002KT 19/M03 A3003 RMK A01 T01861025  RH  024%=      5-min Rain = 0
KVA1 241309Z 26004KT 19/M02 A3003 RMK A01 T01871023  RH  024%=      5-min Rain = 0
KVA1 241310Z 26004KT 19/M02 A3003 RMK A01 T01881024  RH  024%=      5-min Rain = 0
KVA1 241311Z 26003KT 19/M02 A3003 RMK A01 T01891024  RH  023%=      5-min Rain = 0
KVA1 241312Z 25002KT 19/M03 A3003 RMK A01 T01901025  RH  023%=      5-min Rain = 0
KVA1 241313Z 25002KT 19/M02 A3003 RMK A01 T01911024  RH  023%=      5-min Rain = 0
KVA1 241314Z 23001KT 19/M02 A3003 RMK A01 T01921024  RH  023%=      5-min Rain = 0
KVA1 241315Z 22001KT 19/M03 A3003 RMK A01 T01931025  RH  023%=      5-min Rain = 0
KVA1 241316Z 22000KT 19/M02 A3003 RMK A01 T01941024  RH  023%=      5-min Rain = 0
KVA1 241317Z 23000KT 20/M02 A3003 RMK A01 T01961023  RH  023%=      5-min Rain = 0
KVA1 241318Z 24000KT 20/M02 A3003 RMK A01 T01971024  RH  022%=      5-min Rain = 0
KVA1 241319Z 24001KT 20/M02 A3003 RMK A01 T01981023  RH  022%=      5-min Rain = 0
KVA1 241320Z 22001KT 20/M02 A3003 RMK A01 T02001020  RH  023%=      5-min Rain = 0
KVA1 241321Z 25001KT 20/M02 A3003 RMK A01 T02021019  RH  022%=      5-min Rain = 0
KVA1 241322Z 23001KT 20/M02 A3003 RMK A01 T02041021  RH  022%=      5-min Rain = 0
KVA1 241323Z 22001KT 21/M02 A3003 RMK A01 T02051021  RH  022%=      5-min Rain = 0
KVA1 241324Z 21001KT 21/M02 A3003 RMK A01 T02061020  RH  022%=      5-min Rain = 0
KVA1 241325Z 19001KT 21/M02 A3003 RMK A01 T02071021  RH  022%=      5-min Rain = 0
KVA1 241326Z 18001KT 21/M02 A3003 RMK A01 T02081020  RH  021%=      5-min Rain = 0
KVA1 241327Z 15002KT 21/M02 A3003 RMK A01 T02081019  RH  022%=      5-min Rain = 0
KVA1 241328Z 16003KT 21/M02 A3003 RMK A01 T02101019  RH  021%=      5-min Rain = 0
KVA1 241329Z 16003KT 21/M02 A3003 RMK A01 T02111021  RH  021%=      5-min Rain = 0
KVA1 241330Z 15002KT 21/M02 A3003 RMK A01 T02131018  RH  021%=      5-min Rain = 0
KVA1 241331Z 15003KT 22/M02 A3003 RMK A01 T02151017  RH  021%=      5-min Rain = 0
KVA1 241332Z 15002KT 22/M02 A3003 RMK A01 T02171019  RH  021%=      5-min Rain = 0
KVA1 241333Z 16002KT 22/M02 A3003 RMK A01 T02181018  RH  021%=      5-min Rain = 0
KVA1 241334Z 16002KT 22/M02 A3003 RMK A01 T02201018  RH  020%=      5-min Rain = 0
KVA1 241335Z 14002KT 22/M02 A3003 RMK A01 T02211017  RH  020%=      5-min Rain = 0
KVA1 241336Z 12002KT 22/M02 A3004 RMK A01 T02231017  RH  020%=      5-min Rain = 0
KVA1 241337Z 11001KT 23/M01 A3004 RMK A01 T02261014  RH  020%=      5-min Rain = 0
KVA1 241338Z 12001KT 23/M01 A3004 RMK A01 T02281014  RH  020%=      5-min Rain = 0
KVA1 241339Z 09000KT 23/M01 A3004 RMK A01 T02311014  RH  020%=      5-min Rain = 0
KVA1 241340Z 00000KT 23/M01 A3004 RMK A01 T02331013  RH  019%=      5-min Rain = 0
KVA1 241341Z 11000KT 24/M01 A3004 RMK A01 T02361012  RH  019%=      5-min Rain = 0
KVA1 241342Z 10002KT 24/M01 A3004 RMK A01 T02381011  RH  019%=      5-min Rain = 0
KVA1 241343Z 09001KT 24/M01 A3004 RMK A01 T02401009  RH  019%=      5-min Rain = 0
KVA1 241344Z 11002KT 24/M01 A3004 RMK A01 T02401009  RH  019%=      5-min Rain = 0
KVA1 241345Z 10001KT 24/M01 A3004 RMK A01 T02401008  RH  019%=      5-min Rain = 0
KVA1 241346Z 09001KT 24/M01 A3004 RMK A01 T02411009  RH  019%=      5-min Rain = 0
KVA1 241347Z 10002KT 24/M01 A3004 RMK A01 T02421006  RH  019%=      5-min Rain = 0
KVA1 241348Z 11002KT 24/M01 A3004 RMK A01 T02431007  RH  019%=      5-min Rain = 0
KVA1 241349Z 10003KT 24/M01 A3004 RMK A01 T02441009  RH  019%=      5-min Rain = 0
KVA1 241350Z 11003KT 24/M01 A3004 RMK A01 T02441012  RH  018%=      5-min Rain = 0
KVA1 241351Z 10003KT 25/M01 A3004 RMK A01 T02451011  RH  018%=      5-min Rain = 0
KVA1 241352Z 11004KT 25/M01 A3004 RMK A01 T02461011  RH  018%=      5-min Rain = 0
KVA1 241353Z 10004KT 25/M02 A3004 RMK A01 T02471015  RH  018%=      5-min Rain = 0
KVA1 241354Z 10004KT 25/M02 A3004 RMK A01 T02481015  RH  018%=      5-min Rain = 0
KVA1 241355Z 11004KT 25/M02 A3004 RMK A01 T02491015  RH  017%=      5-min Rain = 0
KVA1 241356Z 11005KT 25/M02 A3004 RMK A01 T02501015  RH  017%=      5-min Rain = 0
KVA1 241357Z 11004KT 25/M02 A3004 RMK A01 T02501018  RH  017%=      5-min Rain = 0
KVA1 241358Z 10004KT 25/M02 A3004 RMK A01 T02501017  RH  017%=      5-min Rain = 0
KVA1 241359Z 09004KT 25/M02 A3004 RMK A01 T02511016  RH  017%=      5-min Rain = 0
KVA1 241400Z 10005KT 25/M02 A3004 RMK A01 T02521016  RH  017%=      5-min Rain = 0
KVA1 241401Z 11004KT 25/M02 A3004 RMK A01 T02531019  RH  016%=      5-min Rain = 0
KVA1 241402Z 11005KT 25/M02 A3004 RMK A01 T02541024  RH  016%=      5-min Rain = 0
KVA1 241403Z 10004KT 25/M03 A3004 RMK A01 T02541028  RH  015%=      5-min Rain = 0
KVA1 241404Z 09005KT 26/M03 A3004 RMK A01 T02561029  RH  015%=      5-min Rain = 0
KVA1 241405Z 09005KT 26/M03 A3004 RMK A01 T02561031  RH  015%=      5-min Rain = 0
KVA1 241406Z 09005KT 26/M03 A3005 RMK A01 T02561027  RH  015%=      5-min Rain = 0
KVA1 241407Z 08005KT 26/M03 A3005 RMK A01 T02561026  RH  015%=      5-min Rain = 0
KVA1 241408Z 08005KT 26/M03 A3004 RMK A01 T02571029  RH  015%=      5-min Rain = 0
KVA1 241409Z 10003KT 26/M03 A3004 RMK A01 T02571029  RH  015%=      5-min Rain = 0
KVA1 241410Z 08004KT 26/M03 A3004 RMK A01 T02571031  RH  015%=      5-min Rain = 0
KVA1 241411Z 08005KT 26/M04 A3005 RMK A01 T02581037  RH  014%=      5-min Rain = 0
KVA1 241412Z 09005KT 26/M04 A3005 RMK A01 T02571035  RH  014%=      5-min Rain = 0
KVA1 241413Z 10004KT 26/M03 A3005 RMK A01 T02571033  RH  014%=      5-min Rain = 0
KVA1 241414Z 10005KT 26/M03 A3005 RMK A01 T02581034  RH  014%=      5-min Rain = 0
KVA1 241415Z 10004KT 26/M03 A3005 RMK A01 T02581031  RH  015%=      5-min Rain = 0
KVA1 241416Z 09005KT 26/M03 A3005 RMK A01 T02591031  RH  015%=      5-min Rain = 0
KVA1 241417Z 10004KT 26/M04 A3005 RMK A01 T02601035  RH  014%=      5-min Rain = 0
KVA1 241418Z 10004KT 26/M04 A3005 RMK A01 T02601036  RH  014%=      5-min Rain = 0
KVA1 241419Z 09004KT 26/M03 A3005 RMK A01 T02591034  RH  014%=      5-min Rain = 0
KVA1 241420Z 09005KT 26/M04 A3005 RMK A01 T02591037  RH  014%=      5-min Rain = 0
KVA1 241421Z 07004KT 26/M04 A3005 RMK A01 T02591035  RH  014%=      5-min Rain = 0
KVA1 241422Z 09004KT 26/M04 A3005 RMK A01 T02601039  RH  014%=      5-min Rain = 0
KVA1 241423Z 07004KT 26/M04 A3005 RMK A01 T02611038  RH  014%=      5-min Rain = 0
KVA1 241424Z 07003KT 26/M04 A3005 RMK A01 T02611038  RH  014%=      5-min Rain = 0
KVA1 241425Z 08003KT 26/M04 A3005 RMK A01 T02621035  RH  014%=      5-min Rain = 0
KVA1 241426Z 08002KT 26/M04 A3005 RMK A01 T02631040  RH  013%=      5-min Rain = 0
KVA1 241427Z 07003KT 26/M04 A3005 RMK A01 T02641038  RH  013%=      5-min Rain = 0
KVA1 241428Z 08005KT 27/M04 A3005 RMK A01 T02651040  RH  013%=      5-min Rain = 0
KVA1 241429Z 06004KT 26/M04 A3005 RMK A01 T02641043  RH  013%=      5-min Rain = 0
KVA1 241430Z 04003KT 26/M05 A3005 RMK A01 T02631045  RH  013%=      5-min Rain = 0
KVA1 241431Z 07002KT 26/M04 A3005 RMK A01 T02631043  RH  013%=      5-min Rain = 0
KVA1 241432Z 07003KT 26/M04 A3005 RMK A01 T02641039  RH  013%=      5-min Rain = 0
KVA1 241433Z 09004KT 27/M05 A3005 RMK A01 T02651046  RH  013%=      5-min Rain = 0
KVA1 241434Z 09003KT 27/M04 A3005 RMK A01 T02661043  RH  013%=      5-min Rain = 0
KVA1 241435Z 09004KT 27/M04 A3005 RMK A01 T02671043  RH  013%=      5-min Rain = 0
KVA1 241436Z 07004KT 27/M04 A3005 RMK A01 T02681043  RH  013%=      5-min Rain = 0
KVA1 241437Z 06004KT 27/M04 A3005 RMK A01 T02691042  RH  013%=      5-min Rain = 0
KVA1 241438Z 07005KT 27/M05 A3005 RMK A01 T02701048  RH  012%=      5-min Rain = 0
KVA1 241439Z 07004KT 27/M05 A3005 RMK A01 T02701050  RH  012%=      5-min Rain = 0
KVA1 241440Z 08006KT 27/M05 A3005 RMK A01 T02691047  RH  012%=      5-min Rain = 0
KVA1 241441Z 08006KT 27/M05 A3005 RMK A01 T02701046  RH  012%=      5-min Rain = 0
KVA1 241442Z 08007KT 27/M06 A3005 RMK A01 T02701058  RH  011%=      5-min Rain = 0
KVA1 241443Z 08005KT 27/M06 A3005 RMK A01 T02701057  RH  011%=      5-min Rain = 0
KVA1 241444Z 07004KT 27/M05 A3005 RMK A01 T02691052  RH  012%=      5-min Rain = 0
KVA1 241445Z 06003KT 27/M05 A3005 RMK A01 T02691051  RH  012%=      5-min Rain = 0
KVA1 241446Z 06004KT 27/M06 A3005 RMK A01 T02701055  RH  011%=      5-min Rain = 0
KVA1 241447Z 07003KT 27/M05 A3005 RMK A01 T02721050  RH  012%=      5-min Rain = 0
KVA1 241448Z 08006KT 28/M05 A3005 RMK A01 T02751048  RH  012%=      5-min Rain = 0
KVA1 241449Z 08006KT 27/M05 A3005 RMK A01 T02741054  RH  011%=      5-min Rain = 0
KVA1 241450Z 04006KT 27/M06 A3005 RMK A01 T02721058  RH  011%=      5-min Rain = 0
KVA1 241451Z 05007KT 27/M06 A3005 RMK A01 T02721059  RH  011%=      5-min Rain = 0
KVA1 241452Z 05006KT 27/M06 A3005 RMK A01 T02721057  RH  011%=      5-min Rain = 0
KVA1 241453Z 06006KT 27/M06 A3005 RMK A01 T02741056  RH  011%=      5-min Rain = 0
KVA1 241454Z 05005KT 27/M05 A3005 RMK A01 T02731054  RH  011%=      5-min Rain = 0
KVA1 241455Z 06004KT 27/M05 A3005 RMK A01 T02741052  RH  011%=      5-min Rain = 0
KVA1 241456Z 07004KT 27/M05 A3005 RMK A01 T02741053  RH  011%=      5-min Rain = 0
KVA1 241457Z 06006KT 28/M05 A3005 RMK A01 T02751048  RH  012%=      5-min Rain = 0
KVA1 241458Z 07005KT 28/M05 A3005 RMK A01 T02761051  RH  011%=      5-min Rain = 0
KVA1 241459Z 07006KT 28/M05 A3005 RMK A01 T02761046  RH  012%=      5-min Rain = 0
KVA1 241500Z 05007KT 28/M05 A3005 RMK A01 T02761050  RH  011%=      5-min Rain = 0
KVA1 241501Z 05005KT 28/M05 A3005 RMK A01 T02761053  RH  011%=      5-min Rain = 0
KVA1 241502Z 07006KT 28/M05 A3005 RMK A01 T02751049  RH  012%=      5-min Rain = 0
KVA1 241503Z 04007KT 28/M05 A3005 RMK A01 T02761046  RH  012%=      5-min Rain = 0
KVA1 241504Z 05007KT 28/M05 A3005 RMK A01 T02761050  RH  011%=      5-min Rain = 0
KVA1 241505Z 05006KT 28/M05 A3005 RMK A01 T02771049  RH  012%=      5-min Rain = 0
KVA1 241506Z 05006KT 28/M05 A3005 RMK A01 T02761049  RH  012%=      5-min Rain = 0
KVA1 241507Z 05006KT 28/M05 A3005 RMK A01 T02751046  RH  012%=      5-min Rain = 0
KVA1 241508Z 04007KT 28/M05 A3005 RMK A01 T02761050  RH  011%=      5-min Rain = 0
KVA1 241509Z 05007KT 28/M05 A3005 RMK A01 T02771053  RH  011%=      5-min Rain = 0
KVA1 241510Z 04008KT 28/M06 A3005 RMK A01 T02781055  RH  011%=      5-min Rain = 0
KVA1 241511Z 02008KT 28/M07 A3005 RMK A01 T02801066  RH  010%=      5-min Rain = 0
KVA1 241512Z 04008KT 28/M06 A3005 RMK A01 T02811063  RH  010%=      5-min Rain = 0
KVA1 241513Z 04008KT 28/M06 A3005 RMK A01 T02811058  RH  010%=      5-min Rain = 0
KVA1 241514Z 04006KT 28/M06 A3005 RMK A01 T02811060  RH  010%=      5-min Rain = 0
KVA1 241515Z 04006KT 28/M06 A3005 RMK A01 T02811063  RH  010%=      5-min Rain = 0
KVA1 241516Z 05010KT 28/M06 A3005 RMK A01 T02811063  RH  010%=      5-min Rain = 0
KVA1 241517Z 05009KT 28/M07 A3005 RMK A01 T02801065  RH  010%=      5-min Rain = 0
KVA1 241518Z 05009KT 28/M07 A3005 RMK A01 T02801068  RH  010%=      5-min Rain = 0
KVA1 241519Z 05005KT 28/M07 A3005 RMK A01 T02801071  RH  009%=      5-min Rain = 0
KVA1 241520Z 03005KT 28/M07 A3005 RMK A01 T02801067  RH  010%=      5-min Rain = 0
KVA1 241521Z 03008KT 28/M06 A3005 RMK A01 T02821059  RH  010%=      5-min Rain = 0
KVA1 241522Z 06008KT 28/M07 A3005 RMK A01 T02831069  RH  009%=      5-min Rain = 0
KVA1 241523Z 06007KT 28/M07 A3005 RMK A01 T02831072  RH  009%=      5-min Rain = 0
KVA1 241524Z 04008KT 28/M07 A3005 RMK A01 T02821068  RH  010%=      5-min Rain = 0
KVA1 241525Z 02007KT 28/M07 A3005 RMK A01 T02831072  RH  009%=      5-min Rain = 0
KVA1 241526Z 01005KT 29/M07 A3005 RMK A01 T02851071  RH  009%=      5-min Rain = 0
KVA1 241527Z 01005KT 29/M07 A3005 RMK A01 T02871067  RH  009%=      5-min Rain = 0
KVA1 241528Z 02007KT 29/M07 A3005 RMK A01 T02881067  RH  009%=      5-min Rain = 0
KVA1 241529Z 05009KT 29/M07 A3005 RMK A01 T02901072  RH  009%=      5-min Rain = 0
KVA1 241530Z 04008KT 29/M07 A3005 RMK A01 T02891074  RH  009%=      5-min Rain = 0
KVA1 241531Z 03008KT 29/M08 A3005 RMK A01 T02871078  RH  009%=      5-min Rain = 0
KVA1 241532Z 02008KT 29/M08 A3005 RMK A01 T02861075  RH  009%=      5-min Rain = 0
KVA1 241533Z 04007KT 29/M07 A3005 RMK A01 T02851072  RH  009%=      5-min Rain = 0
KVA1 241534Z 03008KT 29/M07 A3005 RMK A01 T02861073  RH  009%=      5-min Rain = 0
KVA1 241535Z 02009KT 29/M07 A3005 RMK A01 T02871074  RH  009%=      5-min Rain = 0
KVA1 241536Z 03009KT 29/M08 A3005 RMK A01 T02881076  RH  009%=      5-min Rain = 0
KVA1 241537Z 04010KT 29/M07 A3005 RMK A01 T02891072  RH  009%=      5-min Rain = 0
KVA1 241538Z 03008KT 29/M08 A3005 RMK A01 T02891076  RH  009%=      5-min Rain = 0
KVA1 241539Z 03007KT 29/M08 A3005 RMK A01 T02901076  RH  009%=      5-min Rain = 0
KVA1 241540Z 02006KT 29/M07 A3005 RMK A01 T02901074  RH  009%=      5-min Rain = 0
KVA1 241541Z 03007KT 29/M07 A3005 RMK A01 T02901073  RH  009%=      5-min Rain = 0
KVA1 241542Z 03009KT 29/M08 A3005 RMK A01 T02921078  RH  008%=      5-min Rain = 0
KVA1 241543Z 04009KT 29/M08 A3005 RMK A01 T02921082  RH  008%=      5-min Rain = 0
KVA1 241544Z 03009KT 29/M09 A3005 RMK A01 T02921085  RH  008%=      5-min Rain = 0
KVA1 241545Z 02008KT 29/M09 A3005 RMK A01 T02911086  RH  008%=      5-min Rain = 0
KVA1 241546Z 01007KT 29/M09 A3005 RMK A01 T02911086  RH  008%=      5-min Rain = 0
KVA1 241547Z 01007KT 29/M09 A3005 RMK A01 T02911085  RH  008%=      5-min Rain = 0
KVA1 241548Z 03006KT 29/M08 A3005 RMK A01 T02921082  RH  008%=      5-min Rain = 0
KVA1 241549Z 05008KT 30/M08 A3005 RMK A01 T02961081  RH  008%=      5-min Rain = 0
KVA1 241550Z 04010KT 30/M08 A3004 RMK A01 T02971084  RH  008%=      5-min Rain = 0
KVA1 241551Z 05007KT 30/M09 A3005 RMK A01 T02951086  RH  008%=      5-min Rain = 0
KVA1 241552Z 04005KT 29/M09 A3004 RMK A01 T02941085  RH  008%=      5-min Rain = 0
KVA1 241553Z 05007KT 29/M08 A3004 RMK A01 T02941084  RH  008%=      5-min Rain = 0
KVA1 241554Z 04007KT 30/M08 A3004 RMK A01 T02951083  RH  008%=      5-min Rain = 0
KVA1 241555Z 05007KT 30/M08 A3004 RMK A01 T02951083  RH  008%=      5-min Rain = 0
KVA1 241556Z 05009KT 29/M08 A3004 RMK A01 T02941081  RH  008%=      5-min Rain = 0
KVA1 241557Z 03008KT 29/M08 A3004 RMK A01 T02941080  RH  008%=      5-min Rain = 0
KVA1 241558Z 03006KT 29/M08 A3004 RMK A01 T02941080  RH  008%=      5-min Rain = 0
KVA1 241559Z 02006KT 30/M08 A3004 RMK A01 T02951082  RH  008%=      5-min Rain = 0
KVA1 241600Z 03006KT 30/M08 A3004 RMK A01 T02961078  RH  008%=      5-min Rain = 0
KVA1 241601Z 03008KT 30/M08 A3004 RMK A01 T02981081  RH  008%=      5-min Rain = 0
KVA1 241602Z 02007KT 30/M08 A3004 RMK A01 T02981080  RH  008%=      5-min Rain = 0
KVA1 241603Z 04007KT 30/M08 A3004 RMK A01 T02971082  RH  008%=      5-min Rain = 0
KVA1 241604Z 04009KT 30/M08 A3004 RMK A01 T02961080  RH  008%=      5-min Rain = 0
KVA1 241605Z 03008KT 30/M08 A3004 RMK A01 T02991080  RH  008%=      5-min Rain = 0
KVA1 241606Z 04008KT 30/M08 A3004 RMK A01 T03001082  RH  008%=      5-min Rain = 0
KVA1 241607Z 03007KT 30/M08 A3004 RMK A01 T02981084  RH  008%=      5-min Rain = 0
KVA1 241608Z 02007KT 30/M08 A3004 RMK A01 T02961082  RH  008%=      5-min Rain = 0
KVA1 241609Z 04007KT 30/M08 A3004 RMK A01 T02961083  RH  008%=      5-min Rain = 0
KVA1 241610Z 05007KT 30/M08 A3004 RMK A01 T02971081  RH  008%=      5-min Rain = 0
KVA1 241611Z 05008KT 30/M08 A3004 RMK A01 T02981076  RH  008%=      5-min Rain = 0
KVA1 241612Z 05006KT 30/M08 A3004 RMK A01 T02991078  RH  008%=      5-min Rain = 0
KVA1 241613Z 04009KT 30/M08 A3004 RMK A01 T02981075  RH  008%=      5-min Rain = 0
KVA1 241614Z 04009KT 30/M07 A3004 RMK A01 T02991070  RH  009%=      5-min Rain = 0
KVA1 241615Z 04008KT 30/M07 A3004 RMK A01 T02991071  RH  009%=      5-min Rain = 0
KVA1 241616Z 05008KT 30/M07 A3004 RMK A01 T02971072  RH  009%=      5-min Rain = 0
KVA1 241617Z 04007KT 30/M07 A3004 RMK A01 T02951071  RH  009%=      5-min Rain = 0
KVA1 241618Z 04007KT 30/M07 A3004 RMK A01 T02951070  RH  009%=      5-min Rain = 0
KVA1 241619Z 07004KT 30/M07 A3004 RMK A01 T02951071  RH  009%=      5-min Rain = 0
KVA1 241620Z 07004KT 30/M07 A3004 RMK A01 T02961069  RH  009%=      5-min Rain = 0
KVA1 241621Z 05005KT 30/M07 A3004 RMK A01 T02971068  RH  009%=      5-min Rain = 0
KVA1 241622Z 05008KT 30/M07 A3004 RMK A01 T02991069  RH  009%=      5-min Rain = 0
KVA1 241623Z 03008KT 30/M07 A3004 RMK A01 T03011068  RH  009%=      5-min Rain = 0
KVA1 241624Z 03006KT 30/M07 A3004 RMK A01 T03021072  RH  008%=      5-min Rain = 0
KVA1 241625Z 05007KT 30/M07 A3004 RMK A01 T03011072  RH  008%=      5-min Rain = 0
KVA1 241626Z 04006KT 30/M07 A3004 RMK A01 T03011068  RH  009%=      5-min Rain = 0
KVA1 241627Z 04006KT 31/M07 A3004 RMK A01 T03051069  RH  008%=      5-min Rain = 0
KVA1 241628Z 06006KT 31/M07 A3004 RMK A01 T03051070  RH  008%=      5-min Rain = 0
KVA1 241629Z 05006KT 31/M07 A3004 RMK A01 T03051069  RH  008%=      5-min Rain = 0
KVA1 241630Z 06006KT 30/M07 A3004 RMK A01 T03041068  RH  008%=      5-min Rain = 0
KVA1 241631Z 05006KT 30/M07 A3004 RMK A01 T03031066  RH  009%=      5-min Rain = 0
KVA1 241632Z 04006KT 30/M07 A3004 RMK A01 T03041066  RH  009%=      5-min Rain = 0
KVA1 241633Z 06006KT 31/M07 A3004 RMK A01 T03061068  RH  008%=      5-min Rain = 0
KVA1 241634Z 02005KT 31/M07 A3004 RMK A01 T03051069  RH  008%=      5-min Rain = 0
KVA1 241635Z 05004KT 31/M07 A3004 RMK A01 T03051068  RH  008%=      5-min Rain = 0
KVA1 241636Z 08004KT 31/M06 A3004 RMK A01 T03051064  RH  009%=      5-min Rain = 0
KVA1 241637Z 10006KT 31/M06 A3004 RMK A01 T03061061  RH  009%=      5-min Rain = 0
KVA1 241638Z 12004KT 31/M06 A3004 RMK A01 T03071064  RH  009%=      5-min Rain = 0
KVA1 241639Z 10006KT 31/M07 A3004 RMK A01 T03071066  RH  008%=      5-min Rain = 0
KVA1 241640Z 09007KT 31/M06 A3004 RMK A01 T03071064  RH  009%=      5-min Rain = 0
KVA1 241641Z 06003KT 31/M07 A3004 RMK A01 T03061067  RH  008%=      5-min Rain = 0
KVA1 241642Z 08005KT 31/M07 A3004 RMK A01 T03051066  RH  009%=      5-min Rain = 0
KVA1 241643Z 09005KT 31/M06 A3004 RMK A01 T03061062  RH  009%=      5-min Rain = 0
KVA1 241644Z 09004KT 31/M07 A3004 RMK A01 T03071065  RH  009%=      5-min Rain = 0
KVA1 241645Z 07006KT 31/M06 A3004 RMK A01 T03071064  RH  009%=      5-min Rain = 0
KVA1 241646Z 06004KT 30/M07 A3004 RMK A01 T03041066  RH  009%=      5-min Rain = 0
KVA1 241647Z 07003KT 30/M06 A3004 RMK A01 T03031064  RH  009%=      5-min Rain = 0
KVA1 241648Z 06003KT 30/M06 A3004 RMK A01 T03031064  RH  009%=      5-min Rain = 0
KVA1 241649Z 06003KT 30/M07 A3004 RMK A01 T03031065  RH  009%=      5-min Rain = 0
KVA1 241650Z 03003KT 30/M07 A3004 RMK A01 T03031066  RH  009%=      5-min Rain = 0
KVA1 241651Z 01003KT 30/M06 A3004 RMK A01 T03041064  RH  009%=      5-min Rain = 0
KVA1 241652Z 04002KT 31/M06 A3004 RMK A01 T03061063  RH  009%=      5-min Rain = 0
KVA1 241653Z 11004KT 31/M06 A3004 RMK A01 T03081060  RH  009%=      5-min Rain = 0
KVA1 241654Z 06005KT 31/M06 A3004 RMK A01 T03101059  RH  009%=      5-min Rain = 0
KVA1 241655Z 07006KT 31/M06 A3004 RMK A01 T03101059  RH  009%=      5-min Rain = 0
KVA1 241656Z 07005KT 31/M06 A3004 RMK A01 T03101060  RH  009%=      5-min Rain = 0
KVA1 241657Z 08003KT 31/M06 A3004 RMK A01 T03091060  RH  009%=      5-min Rain = 0
KVA1 241658Z 08003KT 31/M06 A3004 RMK A01 T03081060  RH  009%=      5-min Rain = 0
KVA1 241659Z 09002KT 31/M06 A3004 RMK A01 T03091059  RH  009%=      5-min Rain = 0
KVA1 241700Z 03003KT 31/M06 A3004 RMK A01 T03111058  RH  009%=      5-min Rain = 0
KVA1 241701Z 00005KT 31/M06 A3004 RMK A01 T03141058  RH  009%=      5-min Rain = 0
KVA1 241702Z 36005KT 32/M06 A3004 RMK A01 T03161061  RH  008%=      5-min Rain = 0
KVA1 241703Z 36003KT 31/M06 A3004 RMK A01 T03121063  RH  008%=      5-min Rain = 0
KVA1 241704Z 01004KT 31/M06 A3004 RMK A01 T03131059  RH  009%=      5-min Rain = 0
KVA1 241705Z 05004KT 31/M06 A3004 RMK A01 T03141061  RH  008%=      5-min Rain = 0
KVA1 241706Z 06004KT 32/M06 A3004 RMK A01 T03151061  RH  008%=      5-min Rain = 0
KVA1 241707Z 04004KT 31/M06 A3004 RMK A01 T03141063  RH  008%=      5-min Rain = 0
KVA1 241708Z 08003KT 31/M06 A3004 RMK A01 T03141062  RH  008%=      5-min Rain = 0
KVA1 241709Z 08006KT 32/M06 A3004 RMK A01 T03161055  RH  009%=      5-min Rain = 0
KVA1 241710Z 08005KT 32/M06 A3004 RMK A01 T03181058  RH  008%=      5-min Rain = 0
KVA1 241711Z 09003KT 32/M06 A3004 RMK A01 T03181059  RH  008%=      5-min Rain = 0
KVA1 241712Z 09004KT 32/M06 A3004 RMK A01 T03171061  RH  008%=      5-min Rain = 0
KVA1 241713Z 11004KT 31/M06 A3004 RMK A01 T03141061  RH  008%=      5-min Rain = 0
KVA1 241714Z 07007KT 32/M06 A3004 RMK A01 T03151057  RH  009%=      5-min Rain = 0
KVA1 241715Z 08004KT 32/M06 A3004 RMK A01 T03151060  RH  008%=      5-min Rain = 0
KVA1 241716Z 09004KT 31/M06 A3004 RMK A01 T03131059  RH  009%=      5-min Rain = 0
KVA1 241717Z 12003KT 31/M06 A3004 RMK A01 T03131060  RH  009%=      5-min Rain = 0
KVA1 241718Z 10005KT 31/M06 A3004 RMK A01 T03141058  RH  009%=      5-min Rain = 0
KVA1 241719Z 09005KT 32/M06 A3004 RMK A01 T03151057  RH  009%=      5-min Rain = 0
KVA1 241720Z 13004KT 32/M06 A3004 RMK A01 T03171057  RH  009%=      5-min Rain = 0
KVA1 241721Z 17003KT 32/M06 A3003 RMK A01 T03161059  RH  008%=      5-min Rain = 0
KVA1 241722Z 13003KT 32/M06 A3004 RMK A01 T03151058  RH  009%=      5-min Rain = 0
KVA1 241723Z 10003KT 32/M06 A3004 RMK A01 T03151059  RH  009%=      5-min Rain = 0
KVA1 241724Z 08006KT 32/M05 A3003 RMK A01 T03161054  RH  009%=      5-min Rain = 0
KVA1 241725Z 07004KT 32/M05 A3003 RMK A01 T03191053  RH  009%=      5-min Rain = 0
KVA1 241726Z 06003KT 32/M06 A3003 RMK A01 T03201058  RH  008%=      5-min Rain = 0
KVA1 241727Z 06002KT 32/M06 A3003 RMK A01 T03181059  RH  008%=      5-min Rain = 0
KVA1 241728Z 09005KT 32/M05 A3003 RMK A01 T03181054  RH  009%=      5-min Rain = 0
KVA1 241729Z 10004KT 32/M05 A3003 RMK A01 T03201054  RH  009%=      5-min Rain = 0
KVA1 241730Z 12002KT 32/M05 A3003 RMK A01 T03221053  RH  009%=      5-min Rain = 0
KVA1 241731Z 16002KT 32/M06 A3003 RMK A01 T03231056  RH  008%=      5-min Rain = 0
KVA1 241732Z 19002KT 32/M06 A3003 RMK A01 T03221057  RH  008%=      5-min Rain = 0
KVA1 241733Z 05002KT 32/M06 A3003 RMK A01 T03211059  RH  008%=      5-min Rain = 0
KVA1 241734Z 03001KT 32/M06 A3003 RMK A01 T03221057  RH  008%=      5-min Rain = 0
KVA1 241735Z 33000KT 32/M06 A3003 RMK A01 T03221057  RH  008%=      5-min Rain = 0
KVA1 241736Z 29001KT 32/M06 A3003 RMK A01 T03221059  RH  008%=      5-min Rain = 0
KVA1 241737Z 32004KT 32/M06 A3003 RMK A01 T03231057  RH  008%=      5-min Rain = 0
KVA1 241738Z 02003KT 32/M06 A3003 RMK A01 T03201060  RH  008%=      5-min Rain = 0
KVA1 241739Z 04004KT 32/M06 A3003 RMK A01 T03211056  RH  008%=      5-min Rain = 0
KVA1 241740Z 02003KT 32/M06 A3003 RMK A01 T03231058  RH  008%=      5-min Rain = 0
KVA1 241741Z 01004KT 32/M06 A3003 RMK A01 T03241056  RH  008%=      5-min Rain = 0
KVA1 241742Z 05003KT 33/M06 A3003 RMK A01 T03261055  RH  008%=      5-min Rain = 0
KVA1 241743Z 03003KT 33/M06 A3003 RMK A01 T03251056  RH  008%=      5-min Rain = 0
KVA1 241744Z 35003KT 32/M06 A3003 RMK A01 T03241056  RH  008%=      5-min Rain = 0
KVA1 241745Z 35003KT 32/M06 A3003 RMK A01 T03241055  RH  008%=      5-min Rain = 0
KVA1 241746Z 07005KT 32/M05 A3003 RMK A01 T03231054  RH  008%=      5-min Rain = 0
KVA1 241747Z 10006KT 33/M05 A3003 RMK A01 T03261047  RH  009%=      5-min Rain = 0
KVA1 241748Z 11005KT 33/M05 A3003 RMK A01 T03311048  RH  008%=      5-min Rain = 0
KVA1 241749Z 11006KT 33/M05 A3003 RMK A01 T03321049  RH  008%=      5-min Rain = 0
KVA1 241750Z 11004KT 33/M05 A3003 RMK A01 T03321051  RH  008%=      5-min Rain = 0
KVA1 241751Z 03005KT 33/M05 A3003 RMK A01 T03291053  RH  008%=      5-min Rain = 0
KVA1 241752Z 02004KT 33/M05 A3003 RMK A01 T03281052  RH  008%=      5-min Rain = 0
KVA1 241753Z 01006KT 33/M05 A3003 RMK A01 T03291052  RH  008%=      5-min Rain = 0
KVA1 241754Z 01007KT 33/M06 A3003 RMK A01 T03291055  RH  008%=      5-min Rain = 0
KVA1 241755Z 36005KT 33/M06 A3003 RMK A01 T03281055  RH  008%=      5-min Rain = 0
KVA1 241756Z 00004KT 33/M06 A3003 RMK A01 T03251056  RH  008%=      5-min Rain = 0
KVA1 241757Z 00007KT 33/M05 A3003 RMK A01 T03281053  RH  008%=      5-min Rain = 0
KVA1 241758Z 00006KT 33/M06 A3002 RMK A01 T03301055  RH  008%=      5-min Rain = 0
KVA1 241759Z 34004KT 33/M05 A3002 RMK A01 T03271054  RH  008%=      5-min Rain = 0
KVA1 241800Z 00005KT 33/M05 A3002 RMK A01 T03261054  RH  008%=      5-min Rain = 0
KVA1 241801Z 02003KT 33/M05 A3002 RMK A01 T03271053  RH  008%=      5-min Rain = 0
KVA1 241802Z 07001KT 33/M05 A3002 RMK A01 T03281054  RH  008%=      5-min Rain = 0
KVA1 241803Z 15005KT 33/M05 A3002 RMK A01 T03301053  RH  008%=      5-min Rain = 0
KVA1 241804Z 12005KT 33/M05 A3002 RMK A01 T03311051  RH  008%=      5-min Rain = 0
KVA1 241805Z 14004KT 33/M05 A3002 RMK A01 T03331050  RH  008%=      5-min Rain = 0
KVA1 241806Z 12004KT 33/M05 A3002 RMK A01 T03331050  RH  008%=      5-min Rain = 0
KVA1 241807Z 17006KT 33/M05 A3002 RMK A01 T03331048  RH  008%=      5-min Rain = 0
KVA1 241808Z 15004KT 33/M05 A3002 RMK A01 T03331049  RH  008%=      5-min Rain = 0
KVA1 241809Z 16006KT 33/M05 A3002 RMK A01 T03331047  RH  008%=      5-min Rain = 0
KVA1 241810Z 16005KT 34/M05 A3002 RMK A01 T03351048  RH  008%=      5-min Rain = 0
KVA1 241811Z 15004KT 34/M05 A3002 RMK A01 T03351047  RH  008%=      5-min Rain = 0
KVA1 241812Z 14007KT 33/M05 A3002 RMK A01 T03341048  RH  008%=      5-min Rain = 0
KVA1 241813Z 14006KT 33/M05 A3002 RMK A01 T03341046  RH  008%=      5-min Rain = 0
KVA1 241814Z 16006KT 34/M05 A3002 RMK A01 T03361046  RH  008%=      5-min Rain = 0
KVA1 241815Z 14009KT 34/M05 A3002 RMK A01 T03381046  RH  008%=      5-min Rain = 0
KVA1 241816Z 12007KT 34/M05 A3002 RMK A01 T03381048  RH  008%=      5-min Rain = 0
KVA1 241817Z 13004KT 34/M05 A3002 RMK A01 T03351050  RH  008%=      5-min Rain = 0
KVA1 241818Z 14004KT 33/M05 A3002 RMK A01 T03331050  RH  008%=      5-min Rain = 0
KVA1 241819Z 15006KT 33/M05 A3002 RMK A01 T03341047  RH  008%=      5-min Rain = 0
KVA1 241820Z 14004KT 34/M05 A3002 RMK A01 T03351049  RH  008%=      5-min Rain = 0
KVA1 241821Z 13005KT 34/M05 A3002 RMK A01 T03361050  RH  008%=      5-min Rain = 0
KVA1 241822Z 11005KT 34/M05 A3002 RMK A01 T03361047  RH  008%=      5-min Rain = 0
KVA1 241823Z 09003KT 34/M04 A3002 RMK A01 T03361044  RH  008%=      5-min Rain = 0
KVA1 241824Z 08004KT 33/M05 A3002 RMK A01 T03331048  RH  008%=      5-min Rain = 0
KVA1 241825Z 07004KT 33/M04 A3002 RMK A01 T03311044  RH  009%=      5-min Rain = 0
KVA1 241826Z 04003KT 33/M05 A3002 RMK A01 T03311045  RH  009%=      5-min Rain = 0
KVA1 241827Z 12005KT 33/M04 A3002 RMK A01 T03341044  RH  009%=      5-min Rain = 0
KVA1 241828Z 13006KT 34/M05 A3002 RMK A01 T03351045  RH  008%=      5-min Rain = 0
KVA1 241829Z 15005KT 34/M05 A3002 RMK A01 T03351048  RH  008%=      5-min Rain = 0
KVA1 241830Z 10005KT 34/M05 A3002 RMK A01 T03351048  RH  008%=      5-min Rain = 0
KVA1 241831Z 11003KT 33/M05 A3002 RMK A01 T03331049  RH  008%=      5-min Rain = 0
KVA1 241832Z 08002KT 33/M05 A3002 RMK A01 T03321050  RH  008%=      5-min Rain = 0
KVA1 241833Z 02002KT 33/M05 A3002 RMK A01 T03311051  RH  008%=      5-min Rain = 0
KVA1 241834Z 03002KT 33/M05 A3001 RMK A01 T03321052  RH  008%=      5-min Rain = 0
KVA1 241835Z 00002KT 33/M05 A3001 RMK A01 T03311052  RH  008%=      5-min Rain = 0
KVA1 241836Z 34002KT 33/M05 A3001 RMK A01 T03331052  RH  008%=      5-min Rain = 0
KVA1 241837Z 34002KT 33/M05 A3001 RMK A01 T03331052  RH  008%=      5-min Rain = 0
KVA1 241838Z 32002KT 33/M05 A3001 RMK A01 T03341053  RH  008%=      5-min Rain = 0
KVA1 241839Z 00003KT 34/M05 A3001 RMK A01 T03351050  RH  008%=      5-min Rain = 0
KVA1 241840Z 01004KT 34/M05 A3001 RMK A01 T03361051  RH  008%=      5-min Rain = 0
KVA1 241841Z 02004KT 34/M05 A3001 RMK A01 T03351052  RH  008%=      5-min Rain = 0
KVA1 241842Z 34005KT 33/M05 A3001 RMK A01 T03341051  RH  008%=      5-min Rain = 0
KVA1 241843Z 36002KT 33/M05 A3001 RMK A01 T03331051  RH  008%=      5-min Rain = 0
KVA1 241844Z 01001KT 33/M05 A3001 RMK A01 T03331053  RH  008%=      5-min Rain = 0
KVA1 241845Z 20001KT 34/M05 A3001 RMK A01 T03351051  RH  008%=      5-min Rain = 0
KVA1 241846Z 13001KT 34/M05 A3001 RMK A01 T03361052  RH  008%=      5-min Rain = 0
KVA1 241847Z 04003KT 34/M05 A3001 RMK A01 T03371051  RH  008%=      5-min Rain = 0
KVA1 241848Z 15005G10KT 34/M05 A3001 RMK A01 T03421050  RH  008%=      5-min Rain = 0
KVA1 241849Z 14003KT 35/M05 A3001 RMK A01 T03471052  RH  008%=      5-min Rain = 0
KVA1 241850Z 17000KT 35/M06 A3001 RMK A01 T03461057  RH  007%=      5-min Rain = 0
KVA1 241851Z 18002KT 34/M06 A3001 RMK A01 T03431058  RH  007%=      5-min Rain = 0
KVA1 241852Z 15001KT 34/M06 A3001 RMK A01 T03421057  RH  007%=      5-min Rain = 0
KVA1 241853Z 16005KT 34/M05 A3001 RMK A01 T03431053  RH  008%=      5-min Rain = 0
KVA1 241854Z 17005KT 34/M05 A3001 RMK A01 T03431051  RH  008%=      5-min Rain = 0
KVA1 241855Z 15002KT 34/M05 A3001 RMK A01 T03421054  RH  008%=      5-min Rain = 0
KVA1 241856Z 13000KT 34/M05 A3001 RMK A01 T03421054  RH  008%=      5-min Rain = 0
KVA1 241857Z 15003KT 34/M05 A3001 RMK A01 T03421053  RH  008%=      5-min Rain = 0
KVA1 241858Z 14004KT 34/M05 A3001 RMK A01 T03431053  RH  008%=      5-min Rain = 0
KVA1 241859Z 14004KT 35/M05 A3001 RMK A01 T03461050  RH  008%=      5-min Rain = 0
KVA1 241900Z 14006KT 35/M05 A3001 RMK A01 T03481052  RH  007%=      5-min Rain = 0
KVA1 241901Z 14006KT 35/M05 A30 RMK A01 T03451053  RH  007%=      5-min Rain = 0
KVA1 241902Z 11003KT 34/M05 A30 RMK A01 T03431054  RH  008%=      5-min Rain = 0
KVA1 241903Z 12002KT 34/M05 A30 RMK A01 T03421053  RH  008%=      5-min Rain = 0
KVA1 241904Z 12005KT 34/M05 A30 RMK A01 T03431051  RH  008%=      5-min Rain = 0
KVA1 241905Z 13003KT 34/M05 A30 RMK A01 T03441053  RH  008%=      5-min Rain = 0
KVA1 241906Z 14003KT 34/M05 A30 RMK A01 T03431053  RH  008%=      5-min Rain = 0
KVA1 241907Z 14002KT 34/M05 A30 RMK A01 T03431053  RH  008%=      5-min Rain = 0
KVA1 241908Z 15003KT 34/M05 A30 RMK A01 T03431052  RH  008%=      5-min Rain = 0
KVA1 241909Z 16003KT 34/M05 A30 RMK A01 T03431052  RH  008%=      5-min Rain = 0
KVA1 241910Z 19004KT 35/M05 A30 RMK A01 T03451052  RH  008%=      5-min Rain = 0
KVA1 241911Z 20003KT 35/M05 A30 RMK A01 T03471054  RH  007%=      5-min Rain = 0
KVA1 241912Z 20003KT 35/M06 A30 RMK A01 T03471058  RH  007%=      5-min Rain = 0
KVA1 241913Z 19005KT 35/M05 A30 RMK A01 T03491053  RH  007%=      5-min Rain = 0
KVA1 241914Z 18004KT 35/M05 A30 RMK A01 T03501051  RH  007%=      5-min Rain = 0
KVA1 241915Z 14002KT 35/M05 A30 RMK A01 T03471054  RH  007%=      5-min Rain = 0
KVA1 241916Z 12001KT 34/M06 A30 RMK A01 T03441055  RH  007%=      5-min Rain = 0
KVA1 241917Z 31001KT 35/M05 A30 RMK A01 T03461052  RH  008%=      5-min Rain = 0
KVA1 241918Z 26003KT 35/M05 A30 RMK A01 T03501051  RH  007%=      5-min Rain = 0
KVA1 241919Z 24003KT 35/M05 A30 RMK A01 T03541052  RH  007%=      5-min Rain = 0
KVA1 241920Z 22003KT 35/M06 A30 RMK A01 T03531056  RH  007%=      5-min Rain = 0
KVA1 241921Z 19006KT 35/M06 A30 RMK A01 T03521055  RH  007%=      5-min Rain = 0
KVA1 241922Z 21005KT 35/M06 A30 RMK A01 T03511055  RH  007%=      5-min Rain = 0
KVA1 241923Z 25005KT 35/M06 A30 RMK A01 T03491055  RH  007%=      5-min Rain = 0
KVA1 241924Z 25005KT 35/M06 A30 RMK A01 T03481056  RH  007%=      5-min Rain = 0
KVA1 241925Z 27004KT 35/M06 A30 RMK A01 T03471056  RH  007%=      5-min Rain = 0
KVA1 241926Z 25006KT 35/M05 A30 RMK A01 T03471054  RH  007%=      5-min Rain = 0
KVA1 241927Z 26005KT 35/M05 A2999 RMK A01 T03481053  RH  007%=      5-min Rain = 0
KVA1 241928Z 24004KT 35/M05 A2999 RMK A01 T03471054  RH  007%=      5-min Rain = 0
KVA1 241929Z 25005KT 35/M05 A2999 RMK A01 T03471053  RH  007%=      5-min Rain = 0
KVA1 241930Z 23003KT 35/M05 A2999 RMK A01 T03481053  RH  007%=      5-min Rain = 0
KVA1 241931Z 15005KT 35/M05 A2999 RMK A01 T03481054  RH  007%=      5-min Rain = 0
KVA1 241932Z 18006G11KT 35/M05 A2999 RMK A01 T03521050  RH  007%=      5-min Rain = 0
KVA1 241933Z 19007KT 36/M05 A2999 RMK A01 T03551052  RH  007%=      5-min Rain = 0
KVA1 241934Z 20008KT 36/M05 A2999 RMK A01 T03561052  RH  007%=      5-min Rain = 0
KVA1 241935Z 20007KT 36/M05 A2999 RMK A01 T03581049  RH  007%=      5-min Rain = 0
KVA1 241936Z 19006KT 36/M05 A2999 RMK A01 T03561053  RH  007%=      5-min Rain = 0
KVA1 241937Z 22009G14KT 35/M06 A2999 RMK A01 T03511055  RH  007%=      5-min Rain = 0
KVA1 241938Z 23004KT 35/M05 A2999 RMK A01 T03481054  RH  007%=      5-min Rain = 0
KVA1 241939Z 14001KT 35/M06 A2999 RMK A01 T03471055  RH  007%=      5-min Rain = 0
KVA1 241940Z 13003KT 35/M06 A2999 RMK A01 T03471056  RH  007%=      5-min Rain = 0
KVA1 241941Z 11004KT 35/M06 A2999 RMK A01 T03451055  RH  007%=      5-min Rain = 0
KVA1 241942Z 11003KT 35/M05 A2999 RMK A01 T03451054  RH  007%=      5-min Rain = 0
KVA1 241943Z 19005KT 35/M05 A2999 RMK A01 T03451054  RH  007%=      5-min Rain = 0
KVA1 241944Z 19007KT 35/M05 A2999 RMK A01 T03461054  RH  007%=      5-min Rain = 0
KVA1 241945Z 19006KT 35/M06 A2999 RMK A01 T03461055  RH  007%=      5-min Rain = 0
KVA1 241946Z 21005KT 35/M05 A2999 RMK A01 T03461054  RH  007%=      5-min Rain = 0
KVA1 241947Z 23005KT 35/M05 A2999 RMK A01 T03491053  RH  007%=      5-min Rain = 0
KVA1 241948Z 24007KT 35/M05 A2999 RMK A01 T03501053  RH  007%=      5-min Rain = 0
KVA1 241949Z 23007KT 35/M05 A2999 RMK A01 T03521054  RH  007%=      5-min Rain = 0
KVA1 241950Z 23006KT 35/M05 A2999 RMK A01 T03511054  RH  007%=      5-min Rain = 0
KVA1 241951Z 22006KT 35/M05 A2999 RMK A01 T03541053  RH  007%=      5-min Rain = 0
KVA1 241952Z 22007KT 36/M06 A2999 RMK A01 T03551056  RH  007%=      5-min Rain = 0
KVA1 241953Z 19007KT 36/M06 A2999 RMK A01 T03561056  RH  007%=      5-min Rain = 0
KVA1 241954Z 15008KT 36/M06 A2999 RMK A01 T03561056  RH  007%=      5-min Rain = 0
KVA1 241955Z 16007KT 36/M06 A2999 RMK A01 T03561055  RH  007%=      5-min Rain = 0
KVA1 241956Z 16005KT 36/M06 A2999 RMK A01 T03551057  RH  007%=      5-min Rain = 0
KVA1 241957Z 18006KT 36/M06 A2999 RMK A01 T03551057  RH  007%=      5-min Rain = 0
KVA1 241958Z 18008KT 35/M06 A2999 RMK A01 T03531058  RH  007%=      5-min Rain = 0
KVA1 241959Z 18007KT 35/M06 A2999 RMK A01 T03521055  RH  007%=      5-min Rain = 0
KVA1 242000Z 23003KT 35/M06 A2998 RMK A01 T03491059  RH  007%=      5-min Rain = 0
KVA1 242001Z 18004G10KT 35/M06 A2998 RMK A01 T03481057  RH  007%=      5-min Rain = 0
KVA1 242002Z 16007KT 35/M06 A2998 RMK A01 T03501056  RH  007%=      5-min Rain = 0
KVA1 242003Z 17010KT 35/M06 A2998 RMK A01 T03521056  RH  007%=      5-min Rain = 0
KVA1 242004Z 16009KT 35/M06 A2998 RMK A01 T03511059  RH  007%=      5-min Rain = 0
KVA1 242005Z 18003KT 35/M06 A2998 RMK A01 T03481060  RH  007%=      5-min Rain = 0
KVA1 242006Z 31000KT 34/M06 A2998 RMK A01 T03441062  RH  007%=      5-min Rain = 0
KVA1 242007Z 33000KT 34/M06 A2998 RMK A01 T03431060  RH  007%=      5-min Rain = 0
KVA1 242008Z 05003KT 34/M06 A2998 RMK A01 T03431060  RH  007%=      5-min Rain = 0
KVA1 242009Z 04003KT 34/M06 A2998 RMK A01 T03441060  RH  007%=      5-min Rain = 0
KVA1 242010Z 06003KT 34/M06 A2998 RMK A01 T03431059  RH  007%=      5-min Rain = 0
KVA1 242011Z 08002KT 34/M06 A2998 RMK A01 T03431060  RH  007%=      5-min Rain = 0
KVA1 242012Z 09000KT 34/M06 A2998 RMK A01 T03431059  RH  007%=      5-min Rain = 0
KVA1 242013Z 24004KT 35/M06 A2998 RMK A01 T03461056  RH  007%=      5-min Rain = 0
KVA1 242014Z 20009KT 35/M05 A2998 RMK A01 T03511054  RH  007%=      5-min Rain = 0
KVA1 242015Z 20008KT 35/M06 A2998 RMK A01 T03531056  RH  007%=      5-min Rain = 0
KVA1 242016Z 22007KT 35/M05 A2998 RMK A01 T03531054  RH  007%=      5-min Rain = 0
KVA1 242017Z 22006KT 35/M06 A2998 RMK A01 T03531057  RH  007%=      5-min Rain = 0
KVA1 242018Z 24006KT 35/M05 A2998 RMK A01 T03541052  RH  007%=      5-min Rain = 0
KVA1 242019Z 30003KT 36/M06 A2998 RMK A01 T03561056  RH  007%=      5-min Rain = 0
KVA1 242020Z 29004KT 35/M06 A2998 RMK A01 T03521059  RH  007%=      5-min Rain = 0
KVA1 242021Z 30007KT 35/M06 A2998 RMK A01 T03521056  RH  007%=      5-min Rain = 0
KVA1 242022Z 28008KT 35/M06 A2998 RMK A01 T03511056  RH  007%=      5-min Rain = 0
KVA1 242023Z 22007KT 35/M06 A2998 RMK A01 T03511056  RH  007%=      5-min Rain = 0
KVA1 242024Z 18009KT 35/M06 A2998 RMK A01 T03531056  RH  007%=      5-min Rain = 0
KVA1 242025Z 19005KT 35/M06 A2998 RMK A01 T03531056  RH  007%=      5-min Rain = 0
KVA1 242026Z 20005KT 35/M06 A2998 RMK A01 T03541057  RH  007%=      5-min Rain = 0
KVA1 242027Z 22003KT 35/M06 A2997 RMK A01 T03511060  RH  007%=      5-min Rain = 0
KVA1 242028Z 16002KT 35/M06 A2997 RMK A01 T03481060  RH  007%=      5-min Rain = 0
KVA1 242029Z 15003KT 35/M06 A2997 RMK A01 T03481057  RH  007%=      5-min Rain = 0
KVA1 242030Z 19004KT 35/M06 A2997 RMK A01 T03511055  RH  007%=      5-min Rain = 0
KVA1 242031Z 13005KT 36/M05 A2997 RMK A01 T03561052  RH  007%=      5-min Rain = 0
KVA1 242032Z 17007KT 36/M05 A2997 RMK A01 T03601053  RH  007%=      5-min Rain = 0
KVA1 242033Z 17009KT 36/M05 A2997 RMK A01 T03611053  RH  007%=      5-min Rain = 0
KVA1 242034Z 18008KT 36/M06 A2997 RMK A01 T03581056  RH  007%=      5-min Rain = 0
KVA1 242035Z 17010KT 36/M05 A2997 RMK A01 T03571054  RH  007%=      5-min Rain = 0
KVA1 242036Z 16011KT 36/M06 A2997 RMK A01 T03571057  RH  007%=      5-min Rain = 0
KVA1 242037Z 17009KT 36/M06 A2997 RMK A01 T03561057  RH  007%=      5-min Rain = 0
KVA1 242038Z 18005KT 36/M06 A2997 RMK A01 T03561057  RH  007%=      5-min Rain = 0
KVA1 242039Z 20003KT 35/M06 A2997 RMK A01 T03521060  RH  007%=      5-min Rain = 0
KVA1 242040Z 20002KT 35/M06 A2997 RMK A01 T03501058  RH  007%=      5-min Rain = 0
KVA1 242041Z 16004KT 35/M06 A2997 RMK A01 T03531056  RH  007%=      5-min Rain = 0
KVA1 242042Z 10003KT 36/M06 A2997 RMK A01 T03551056  RH  007%=      5-min Rain = 0
KVA1 242043Z 12002KT 36/M06 A2997 RMK A01 T03551057  RH  007%=      5-min Rain = 0
KVA1 242044Z 12002KT 36/M06 A2997 RMK A01 T03551056  RH  007%=      5-min Rain = 0
KVA1 242045Z 16005KT 36/M05 A2997 RMK A01 T03561054  RH  007%=      5-min Rain = 0
KVA1 242046Z 17003KT 36/M06 A2997 RMK A01 T03571056  RH  007%=      5-min Rain = 0
KVA1 242047Z 21002KT 36/M06 A2997 RMK A01 T03571055  RH  007%=      5-min Rain = 0
KVA1 242048Z 20003KT 36/M05 A2997 RMK A01 T03601051  RH  007%=      5-min Rain = 0
KVA1 242049Z 20005KT 36/M05 A2997 RMK A01 T03641052  RH  007%=      5-min Rain = 0
KVA1 242050Z 21004KT 36/M06 A2996 RMK A01 T03621056  RH  007%=      5-min Rain = 0
KVA1 242051Z 19010G15KT 36/M05 A2996 RMK A01 T03591054  RH  007%=      5-min Rain = 0
KVA1 242052Z 19013KT 36/M05 A2996 RMK A01 T03601053  RH  007%=      5-min Rain = 0
KVA1 242053Z 22009KT 36/M06 A2997 RMK A01 T03581055  RH  007%=      5-min Rain = 0
KVA1 242054Z 21006KT 35/M06 A2997 RMK A01 T03521059  RH  007%=      5-min Rain = 0
KVA1 242055Z 17003G8KT 35/M06 A2996 RMK A01 T03511058  RH  007%=      5-min Rain = 0
KVA1 242056Z 16008KT 35/M06 A2996 RMK A01 T03531055  RH  007%=      5-min Rain = 0
KVA1 242057Z 15007KT 36/M06 A2996 RMK A01 T03571055  RH  007%=      5-min Rain = 0
KVA1 242058Z 13006KT 36/M06 A2996 RMK A01 T03571056  RH  007%=      5-min Rain = 0
KVA1 242059Z 15005KT 36/M05 A2996 RMK A01 T03581054  RH  007%=      5-min Rain = 0
KVA1 242100Z 19005KT 36/M05 A2996 RMK A01 T03611053  RH  007%=      5-min Rain = 0
KVA1 242101Z 21003KT 36/M06 A2996 RMK A01 T03621055  RH  007%=      5-min Rain = 0
KVA1 242102Z 19006KT 36/M05 A2996 RMK A01 T03601053  RH  007%=      5-min Rain = 0
KVA1 242103Z 18006KT 36/M05 A2996 RMK A01 T03631053  RH  007%=      5-min Rain = 0
KVA1 242104Z 18004KT 36/M05 A2996 RMK A01 T03621054  RH  007%=      5-min Rain = 0
KVA1 242105Z 19006KT 36/M05 A2996 RMK A01 T03631052  RH  007%=      5-min Rain = 0
KVA1 242106Z 17005KT 36/M06 A2996 RMK A01 T03621055  RH  007%=      5-min Rain = 0
KVA1 242107Z 17005KT 36/M05 A2996 RMK A01 T03591054  RH  007%=      5-min Rain = 0
KVA1 242108Z 18003KT 36/M06 A2996 RMK A01 T03571057  RH  007%=      5-min Rain = 0
KVA1 242109Z 13002KT 36/M06 A2996 RMK A01 T03551057  RH  007%=      5-min Rain = 0
KVA1 242110Z 14003KT 36/M06 A2995 RMK A01 T03551055  RH  007%=      5-min Rain = 0
KVA1 242111Z 16005KT 36/M05 A2995 RMK A01 T03561054  RH  007%=      5-min Rain = 0
KVA1 242112Z 15004KT 36/M06 A2995 RMK A01 T03581055  RH  007%=      5-min Rain = 0
KVA1 242113Z 17005KT 36/M05 A2995 RMK A01 T03591054  RH  007%=      5-min Rain = 0
KVA1 242114Z 14005KT 36/M06 A2995 RMK A01 T03601057  RH  007%=      5-min Rain = 0
KVA1 242115Z 12004KT 36/M06 A2995 RMK A01 T03571057  RH  007%=      5-min Rain = 0
KVA1 242116Z 11005KT 36/M06 A2995 RMK A01 T03561057  RH  007%=      5-min Rain = 0
KVA1 242117Z 08004KT 36/M06 A2995 RMK A01 T03561056  RH  007%=      5-min Rain = 0
KVA1 242118Z 03003KT 36/M06 A2995 RMK A01 T03551057  RH  007%=      5-min Rain = 0
KVA1 242119Z 04002KT 36/M06 A2995 RMK A01 T03571055  RH  007%=      5-min Rain = 0
KVA1 242120Z 02002KT 36/M06 A2995 RMK A01 T03611055  RH  007%=      5-min Rain = 0
KVA1 242121Z 02005KT 36/M06 A2995 RMK A01 T03621057  RH  007%=      5-min Rain = 0
KVA1 242122Z 03005KT 36/M06 A2995 RMK A01 T03621056  RH  007%=      5-min Rain = 0
KVA1 242123Z 03006KT 36/M06 A2994 RMK A01 T03611056  RH  007%=      5-min Rain = 0
KVA1 242124Z 05004KT 36/M06 A2994 RMK A01 T03591056  RH  007%=      5-min Rain = 0
KVA1 242125Z 06005KT 36/M06 A2994 RMK A01 T03571057  RH  007%=      5-min Rain = 0
KVA1 242126Z 08005KT 36/M06 A2994 RMK A01 T03551056  RH  007%=      5-min Rain = 0
KVA1 242127Z 12004KT 35/M06 A2994 RMK A01 T03541056  RH  007%=      5-min Rain = 0
KVA1 242128Z 12004KT 35/M06 A2994 RMK A01 T03531057  RH  007%=      5-min Rain = 0
KVA1 242129Z 10002KT 35/M06 A2994 RMK A01 T03531056  RH  007%=      5-min Rain = 0
KVA1 242130Z 16001KT 35/M06 A2994 RMK A01 T03531056  RH  007%=      5-min Rain = 0
KVA1 242131Z 18001KT 36/M05 A2994 RMK A01 T03571053  RH  007%=      5-min Rain = 0
KVA1 242132Z 13003KT 36/M05 A2994 RMK A01 T03611053  RH  007%=      5-min Rain = 0
KVA1 242133Z 14003KT 36/M05 A2994 RMK A01 T03621054  RH  007%=      5-min Rain = 0
KVA1 242134Z 21006KT 36/M05 A2994 RMK A01 T03631052  RH  007%=      5-min Rain = 0
KVA1 242135Z 23006KT 37/M05 A2994 RMK A01 T03661052  RH  007%=      5-min Rain = 0
KVA1 242136Z 21005KT 37/M05 A2994 RMK A01 T03661054  RH  007%=      5-min Rain = 0
KVA1 242137Z 18005KT 36/M06 A2994 RMK A01 T03641055  RH  007%=      5-min Rain = 0
KVA1 242138Z 18006KT 36/M06 A2994 RMK A01 T03631055  RH  007%=      5-min Rain = 0
KVA1 242139Z 20012KT 36/M05 A2994 RMK A01 T03621054  RH  007%=      5-min Rain = 0
KVA1 242140Z 19013KT 37/M06 A2994 RMK A01 T03651057  RH  007%=      5-min Rain = 0
KVA1 242141Z 19013KT 37/M06 A2994 RMK A01 T03671060  RH  006%=      5-min Rain = 0
KVA1 242142Z 19010KT 37/M06 A2994 RMK A01 T03651061  RH  006%=      5-min Rain = 0
KVA1 242143Z 17011KT 36/M07 A2994 RMK A01 T03641065  RH  006%=      5-min Rain = 0
KVA1 242144Z 21009KT 36/M06 A2994 RMK A01 T03621063  RH  006%=      5-min Rain = 0
KVA1 242145Z 21008KT 36/M06 A2994 RMK A01 T03621062  RH  006%=      5-min Rain = 0
KVA1 242146Z 19010KT 37/M06 A2994 RMK A01 T03661059  RH  006%=      5-min Rain = 0
KVA1 242147Z 20006KT 36/M07 A2994 RMK A01 T03641066  RH  006%=      5-min Rain = 0
KVA1 242148Z 21007KT 36/M06 A2994 RMK A01 T03621062  RH  006%=      5-min Rain = 0
KVA1 242149Z 22008KT 36/M06 A2994 RMK A01 T03631062  RH  006%=      5-min Rain = 0
KVA1 242150Z 23004KT 36/M06 A2994 RMK A01 T03631062  RH  006%=      5-min Rain = 0
KVA1 242151Z 20003KT 36/M06 A2994 RMK A01 T03641063  RH  006%=      5-min Rain = 0
KVA1 242152Z 25006KT 36/M06 A2994 RMK A01 T03621064  RH  006%=      5-min Rain = 0
KVA1 242153Z 27007KT 36/M06 A2994 RMK A01 T03611064  RH  006%=      5-min Rain = 0
KVA1 242154Z 27002KT 36/M07 A2994 RMK A01 T03581065  RH  006%=      5-min Rain = 0
KVA1 242155Z 24004KT 36/M06 A2994 RMK A01 T03581064  RH  006%=      5-min Rain = 0
KVA1 242156Z 23005KT 36/M06 A2993 RMK A01 T03601062  RH  006%=      5-min Rain = 0
KVA1 242157Z 21009G15KT 36/M06 A2994 RMK A01 T03631059  RH  006%=      5-min Rain = 0
KVA1 242158Z 21013KT 37/M06 A2993 RMK A01 T03661060  RH  006%=      5-min Rain = 0
KVA1 242159Z 21013KT 37/M06 A2993 RMK A01 T03661061  RH  006%=      5-min Rain = 0
KVA1 242200Z 21011KT 36/M06 A2993 RMK A01 T03641064  RH  006%=      5-min Rain = 0
KVA1 242201Z 23010KT 36/M06 A2993 RMK A01 T03641063  RH  006%=      5-min Rain = 0
KVA1 242202Z 21007KT 36/M06 A2993 RMK A01 T03641064  RH  006%=      5-min Rain = 0
KVA1 242203Z 23010KT 36/M07 A2993 RMK A01 T03611065  RH  006%=      5-min Rain = 0
KVA1 242204Z 21011KT 36/M06 A2993 RMK A01 T03641059  RH  006%=      5-min Rain = 0
KVA1 242205Z 21010KT 37/M06 A2993 RMK A01 T03671062  RH  006%=      5-min Rain = 0
KVA1 242206Z 20009KT 37/M06 A2993 RMK A01 T03661063  RH  006%=      5-min Rain = 0
KVA1 242207Z 22013KT 37/M06 A2993 RMK A01 T03661062  RH  006%=      5-min Rain = 0
KVA1 242208Z 21010KT 36/M06 A2993 RMK A01 T03631063  RH  006%=      5-min Rain = 0
KVA1 242209Z 22009KT 36/M06 A2993 RMK A01 T03641060  RH  006%=      5-min Rain = 0
KVA1 242210Z 21006KT 36/M07 A2993 RMK A01 T03621065  RH  006%=      5-min Rain = 0
KVA1 242211Z 26004KT 36/M06 A2993 RMK A01 T03601061  RH  007%=      5-min Rain = 0
KVA1 242212Z 20004KT 36/M06 A2993 RMK A01 T03641059  RH  007%=      5-min Rain = 0
KVA1 242213Z 17003KT 37/M06 A2993 RMK A01 T03671059  RH  006%=      5-min Rain = 0
KVA1 242214Z 20002KT 37/M06 A2993 RMK A01 T03681060  RH  006%=      5-min Rain = 0
KVA1 242215Z 16005KT 37/M06 A2993 RMK A01 T03681060  RH  006%=      5-min Rain = 0
KVA1 242216Z 17006KT 37/M06 A2993 RMK A01 T03691061  RH  006%=      5-min Rain = 0
KVA1 242217Z 17006KT 37/M07 A2993 RMK A01 T03661065  RH  006%=      5-min Rain = 0
KVA1 242218Z 14007KT 37/M06 A2992 RMK A01 T03651063  RH  006%=      5-min Rain = 0
KVA1 242219Z 18006KT 37/M06 A2992 RMK A01 T03661061  RH  006%=      5-min Rain = 0
KVA1 242220Z 18006KT 37/M06 A2992 RMK A01 T03701059  RH  006%=      5-min Rain = 0
KVA1 242221Z 17003KT 37/M06 A2992 RMK A01 T03691062  RH  006%=      5-min Rain = 0
KVA1 242222Z 17002KT 37/M06 A2992 RMK A01 T03681062  RH  006%=      5-min Rain = 0
KVA1 242223Z 21006KT 37/M06 A2992 RMK A01 T03691061  RH  006%=      5-min Rain = 0
KVA1 242224Z 21008G13KT 37/M06 A2992 RMK A01 T03671061  RH  006%=      5-min Rain = 0
KVA1 242225Z 22013KT 37/M06 A2992 RMK A01 T03691058  RH  006%=      5-min Rain = 0
KVA1 242226Z 21013G18KT 37/M06 A2992 RMK A01 T03681062  RH  006%=      5-min Rain = 0
KVA1 242227Z 21013KT 37/M06 A2992 RMK A01 T03681060  RH  006%=      5-min Rain = 0
KVA1 242228Z 19009KT 37/M06 A2992 RMK A01 T03671062  RH  006%=      5-min Rain = 0
KVA1 242229Z 21010G16KT 37/M06 A2992 RMK A01 T03661060  RH  006%=      5-min Rain = 0
KVA1 242230Z 22012KT 37/M06 A2992 RMK A01 T03691059  RH  006%=      5-min Rain = 0
KVA1 242231Z 19011KT 37/M06 A2992 RMK A01 T03691061  RH  006%=      5-min Rain = 0
KVA1 242232Z 20010KT 37/M06 A2992 RMK A01 T03681060  RH  006%=      5-min Rain = 0
KVA1 242233Z 21012KT 37/M06 A2992 RMK A01 T03671059  RH  006%=      5-min Rain = 0
KVA1 242234Z 23013KT 37/M06 A2992 RMK A01 T03671060  RH  006%=      5-min Rain = 0
KVA1 242235Z 24009KT 37/M06 A2992 RMK A01 T03671063  RH  006%=      5-min Rain = 0
KVA1 242236Z 24011KT 37/M06 A2992 RMK A01 T03691060  RH  006%=      5-min Rain = 0
KVA1 242237Z 24013KT 37/M06 A2992 RMK A01 T03701062  RH  006%=      5-min Rain = 0
KVA1 242238Z 22013KT 37/M06 A2992 RMK A01 T03681063  RH  006%=      5-min Rain = 0
KVA1 242239Z 23011KT 37/M06 A2992 RMK A01 T03671062  RH  006%=      5-min Rain = 0
KVA1 242240Z 23010KT 37/M06 A2992 RMK A01 T03651061  RH  006%=      5-min Rain = 0
KVA1 242241Z 23010KT 36/M06 A2992 RMK A01 T03641064  RH  006%=      5-min Rain = 0
KVA1 242242Z 21007KT 36/M06 A2992 RMK A01 T03621064  RH  006%=      5-min Rain = 0
KVA1 242243Z 23007KT 36/M06 A2992 RMK A01 T03611064  RH  006%=      5-min Rain = 0
KVA1 242244Z 22008KT 36/M06 A2992 RMK A01 T03611064  RH  006%=      5-min Rain = 0
KVA1 242245Z 22012KT 36/M06 A2992 RMK A01 T03621060  RH  006%=      5-min Rain = 0
KVA1 242246Z 22010KT 36/M06 A2992 RMK A01 T03631059  RH  007%=      5-min Rain = 0
KVA1 242247Z 22007KT 36/M06 A2992 RMK A01 T03641061  RH  006%=      5-min Rain = 0
KVA1 242248Z 19005KT 36/M06 A2992 RMK A01 T03631060  RH  006%=      5-min Rain = 0
KVA1 242249Z 17004KT 36/M06 A2992 RMK A01 T03631062  RH  006%=      5-min Rain = 0
KVA1 242250Z 18001KT 36/M06 A2992 RMK A01 T03631061  RH  006%=      5-min Rain = 0
KVA1 242251Z 20007KT 36/M06 A2992 RMK A01 T03641061  RH  006%=      5-min Rain = 0
KVA1 242252Z 19005KT 36/M06 A2992 RMK A01 T03631061  RH  006%=      5-min Rain = 0
KVA1 242253Z 20006KT 36/M06 A2992 RMK A01 T03611061  RH  006%=      5-min Rain = 0
KVA1 242254Z 21005KT 36/M06 A2992 RMK A01 T03611061  RH  006%=      5-min Rain = 0
KVA1 242255Z 24003KT 36/M06 A2992 RMK A01 T03601063  RH  006%=      5-min Rain = 0
KVA1 242256Z 24003KT 36/M06 A2992 RMK A01 T03601062  RH  006%=      5-min Rain = 0
KVA1 242257Z 20003KT 36/M06 A2991 RMK A01 T03601062  RH  006%=      5-min Rain = 0
KVA1 242258Z 23002KT 36/M06 A2991 RMK A01 T03621059  RH  007%=      5-min Rain = 0
KVA1 242259Z 25004KT 37/M06 A2991 RMK A01 T03651060  RH  006%=      5-min Rain = 0
KVA1 242300Z 26006KT 37/M06 A2991 RMK A01 T03651060  RH  006%=      5-min Rain = 0
KVA1 242301Z 25004KT 37/M06 A2991 RMK A01 T03681057  RH  006%=      5-min Rain = 0
KVA1 242302Z 25005KT 37/M06 A2991 RMK A01 T03691060  RH  006%=      5-min Rain = 0
KVA1 242303Z 27008KT 37/M06 A2991 RMK A01 T03681062  RH  006%=      5-min Rain = 0
KVA1 242304Z 25005KT 36/M07 A2991 RMK A01 T03641065  RH  006%=      5-min Rain = 0
KVA1 242305Z 25005KT 36/M06 A2991 RMK A01 T03631064  RH  006%=      5-min Rain = 0
KVA1 242306Z 23006KT 37/M06 A2991 RMK A01 T03661061  RH  006%=      5-min Rain = 0
KVA1 242307Z 23006KT 37/M06 A2991 RMK A01 T03651061  RH  006%=      5-min Rain = 0
KVA1 242308Z 23007KT 36/M06 A2991 RMK A01 T03641059  RH  006%=      5-min Rain = 0
KVA1 242309Z 28005KT 36/M06 A2991 RMK A01 T03631060  RH  006%=      5-min Rain = 0
KVA1 242310Z 30005KT 36/M06 A2991 RMK A01 T03631061  RH  006%=      5-min Rain = 0
KVA1 242311Z 29005KT 36/M06 A2991 RMK A01 T03601063  RH  006%=      5-min Rain = 0
KVA1 242312Z 27007KT 36/M06 A2991 RMK A01 T03601061  RH  007%=      5-min Rain = 0
KVA1 242313Z 28009KT 36/M06 A2991 RMK A01 T03621060  RH  007%=      5-min Rain = 0
KVA1 242314Z 27007KT 36/M06 A2991 RMK A01 T03611061  RH  007%=      5-min Rain = 0
KVA1 242315Z 26005KT 36/M06 A2991 RMK A01 T03601060  RH  007%=      5-min Rain = 0
KVA1 242316Z 28006KT 36/M06 A2991 RMK A01 T03611060  RH  007%=      5-min Rain = 0
KVA1 242317Z 28009KT 36/M06 A2991 RMK A01 T03641057  RH  007%=      5-min Rain = 0
KVA1 242318Z 28010KT 37/M06 A2991 RMK A01 T03651057  RH  007%=      5-min Rain = 0
KVA1 242319Z 26008KT 37/M06 A2991 RMK A01 T03651056  RH  007%=      5-min Rain = 0
KVA1 242320Z 24006KT 37/M06 A2991 RMK A01 T03671057  RH  006%=      5-min Rain = 0
KVA1 242321Z 26007KT 37/M06 A2991 RMK A01 T03691057  RH  006%=      5-min Rain = 0
KVA1 242322Z 26011KT 37/M06 A2991 RMK A01 T03701057  RH  006%=      5-min Rain = 0
KVA1 242323Z 26009KT 37/M06 A2991 RMK A01 T03671062  RH  006%=      5-min Rain = 0
KVA1 242324Z 27008KT 37/M06 A299 RMK A01 T03671060  RH  006%=      5-min Rain = 0
KVA1 242325Z 27008KT 37/M06 A299 RMK A01 T03671059  RH  006%=      5-min Rain = 0
KVA1 242326Z 28009KT 37/M06 A299 RMK A01 T03681059  RH  006%=      5-min Rain = 0
KVA1 242327Z 28008KT 37/M06 A299 RMK A01 T03651063  RH  006%=      5-min Rain = 0
KVA1 242328Z 25005KT 36/M06 A299 RMK A01 T03621064  RH  006%=      5-min Rain = 0
KVA1 242329Z 23012KT 36/M06 A299 RMK A01 T03621063  RH  006%=      5-min Rain = 0
KVA1 242330Z 23009G14KT 36/M06 A299 RMK A01 T03641062  RH  006%=      5-min Rain = 0
KVA1 242331Z 25011KT 37/M06 A299 RMK A01 T03661062  RH  006%=      5-min Rain = 0
KVA1 242332Z 28009KT 36/M06 A299 RMK A01 T03631064  RH  006%=      5-min Rain = 0
KVA1 242333Z 28005KT 36/M07 A299 RMK A01 T03611065  RH  006%=      5-min Rain = 0
KVA1 242334Z 24010KT 36/M06 A299 RMK A01 T03601064  RH  006%=      5-min Rain = 0
KVA1 242335Z 24012KT 36/M06 A299 RMK A01 T03611062  RH  006%=      5-min Rain = 0
KVA1 242336Z 25008KT 36/M06 A299 RMK A01 T03621062  RH  006%=      5-min Rain = 0
KVA1 242337Z 26008KT 36/M06 A299 RMK A01 T03621063  RH  006%=      5-min Rain = 0
KVA1 242338Z 26009KT 36/M06 A299 RMK A01 T03621064  RH  006%=      5-min Rain = 0
KVA1 242339Z 27008KT 36/M06 A299 RMK A01 T03631062  RH  006%=      5-min Rain = 0
KVA1 242340Z 27006KT 36/M06 A299 RMK A01 T03631063  RH  006%=      5-min Rain = 0
KVA1 242341Z 27005KT 36/M06 A299 RMK A01 T03621062  RH  006%=      5-min Rain = 0
KVA1 242342Z 26003KT 36/M07 A299 RMK A01 T03611065  RH  006%=      5-min Rain = 0
KVA1 242343Z 26005KT 36/M06 A299 RMK A01 T03611064  RH  006%=      5-min Rain = 0
KVA1 242344Z 22011KT 36/M06 A299 RMK A01 T03621061  RH  006%=      5-min Rain = 0
KVA1 242345Z 22010KT 36/M06 A299 RMK A01 T03621059  RH  007%=      5-min Rain = 0
KVA1 242346Z 24010KT 36/M06 A299 RMK A01 T03621059  RH  007%=      5-min Rain = 0
KVA1 242347Z 24009KT 36/M06 A299 RMK A01 T03611061  RH  006%=      5-min Rain = 0
KVA1 242348Z 23008KT 36/M06 A299 RMK A01 T03611060  RH  007%=      5-min Rain = 0
KVA1 242349Z 26007KT 36/M06 A299 RMK A01 T03631058  RH  007%=      5-min Rain = 0
KVA1 242350Z 27007KT 36/M06 A299 RMK A01 T03621062  RH  006%=      5-min Rain = 0
KVA1 242351Z 25006KT 36/M06 A299 RMK A01 T03591063  RH  006%=      5-min Rain = 0
KVA1 242352Z 22012KT 36/M06 A299 RMK A01 T03591060  RH  007%=      5-min Rain = 0
KVA1 242353Z 21012KT 36/M06 A299 RMK A01 T03611057  RH  007%=      5-min Rain = 0
KVA1 242354Z 20009KT 36/M06 A299 RMK A01 T03611059  RH  007%=      5-min Rain = 0
KVA1 242355Z 25007KT 36/M06 A299 RMK A01 T03591059  RH  007%=      5-min Rain = 0
KVA1 242356Z 27009KT 36/M06 A299 RMK A01 T03601058  RH  007%=      5-min Rain = 0
KVA1 242357Z 27007KT 36/M06 A299 RMK A01 T03601059  RH  007%=      5-min Rain = 0
KVA1 242358Z 26006KT 36/M06 A299 RMK A01 T03581060  RH  007%=      5-min Rain = 0
KVA1 242359Z 23006KT 36/M06 A2989 RMK A01 T03581060  RH  007%=      5-min Rain = 0
KVA1 250000Z 21007KT 36/M06 A2989 RMK A01 T03601057  RH  007%=      5-min Rain = 0
KVA1 250001Z 20009KT 36/M06 A299 RMK A01 T03631055  RH  007%=      5-min Rain = 0
KVA1 250002Z 19010KT 36/M06 A299 RMK A01 T03631055  RH  007%=      5-min Rain = 0
KVA1 250003Z 20011KT 36/M06 A299 RMK A01 T03611058  RH  007%=      5-min Rain = 0
KVA1 250004Z 20009KT 36/M06 A299 RMK A01 T03601057  RH  007%=      5-min Rain = 0
KVA1 250005Z 18008KT 36/M06 A299 RMK A01 T03601057  RH  007%=      5-min Rain = 0
KVA1 250006Z 19007KT 36/M06 A299 RMK A01 T03591061  RH  007%=      5-min Rain = 0
KVA1 250007Z 21011KT 36/M06 A299 RMK A01 T03591059  RH  007%=      5-min Rain = 0
KVA1 250008Z 21011KT 36/M06 A299 RMK A01 T03591059  RH  007%=      5-min Rain = 0
KVA1 250009Z 21011KT 36/M06 A299 RMK A01 T03591061  RH  007%=      5-min Rain = 0
KVA1 250010Z 21009KT 36/M06 A299 RMK A01 T03591060  RH  007%=      5-min Rain = 0
KVA1 250011Z 21009KT 36/M06 A299 RMK A01 T03591059  RH  007%=      5-min Rain = 0
KVA1 250012Z 20010KT 36/M06 A2989 RMK A01 T03591058  RH  007%=      5-min Rain = 0
KVA1 250013Z 23011KT 36/M06 A2989 RMK A01 T03591059  RH  007%=      5-min Rain = 0
KVA1 250014Z 24010KT 36/M06 A299 RMK A01 T03601058  RH  007%=      5-min Rain = 0
KVA1 250015Z 23010KT 36/M06 A299 RMK A01 T03601059  RH  007%=      5-min Rain = 0
KVA1 250016Z 23009KT 36/M06 A299 RMK A01 T03591059  RH  007%=      5-min Rain = 0
KVA1 250017Z 24008KT 36/M06 A299 RMK A01 T03591060  RH  007%=      5-min Rain = 0
KVA1 250018Z 22008KT 36/M06 A299 RMK A01 T03601058  RH  007%=      5-min Rain = 0
KVA1 250019Z 23011KT 36/M06 A299 RMK A01 T03601059  RH  007%=      5-min Rain = 0
KVA1 250020Z 21007KT 36/M06 A299 RMK A01 T03581060  RH  007%=      5-min Rain = 0
KVA1 250021Z 22007KT 36/M06 A299 RMK A01 T03581058  RH  007%=      5-min Rain = 0
KVA1 250022Z 21009KT 36/M06 A299 RMK A01 T03591058  RH  007%=      5-min Rain = 0
KVA1 250023Z 21007KT 36/M06 A299 RMK A01 T03581060  RH  007%=      5-min Rain = 0
KVA1 250024Z 21006KT 36/M06 A299 RMK A01 T03561060  RH  007%=      5-min Rain = 0
KVA1 250025Z 22007KT 36/M06 A299 RMK A01 T03561058  RH  007%=      5-min Rain = 0
KVA1 250026Z 22007KT 36/M06 A299 RMK A01 T03551059  RH  007%=      5-min Rain = 0
KVA1 250027Z 20010KT 36/M06 A2989 RMK A01 T03551058  RH  007%=      5-min Rain = 0
KVA1 250028Z 21012KT 36/M06 A2989 RMK A01 T03561058  RH  007%=      5-min Rain = 0
KVA1 250029Z 23010KT 36/M06 A2989 RMK A01 T03581057  RH  007%=      5-min Rain = 0
KVA1 250030Z 22010KT 36/M06 A2989 RMK A01 T03591058  RH  007%=      5-min Rain = 0
KVA1 250031Z 23008KT 36/M06 A299 RMK A01 T03571060  RH  007%=      5-min Rain = 0
KVA1 250032Z 23007KT 36/M06 A299 RMK A01 T03571059  RH  007%=      5-min Rain = 0
KVA1 250033Z 23008KT 36/M06 A299 RMK A01 T03581060  RH  007%=      5-min Rain = 0
KVA1 250034Z 23005KT 36/M06 A299 RMK A01 T03571061  RH  007%=      5-min Rain = 0
KVA1 250035Z 24006KT 36/M06 A299 RMK A01 T03561061  RH  007%=      5-min Rain = 0
KVA1 250036Z 21009KT 36/M06 A299 RMK A01 T03561061  RH  007%=      5-min Rain = 0
KVA1 250037Z 19006KT 36/M06 A299 RMK A01 T03561061  RH  007%=      5-min Rain = 0
KVA1 250038Z 18007KT 36/M06 A299 RMK A01 T03561062  RH  007%=      5-min Rain = 0
KVA1 250039Z 22008KT 36/M06 A299 RMK A01 T03561060  RH  007%=      5-min Rain = 0
KVA1 250040Z 21009KT 36/M06 A299 RMK A01 T03571060  RH  007%=      5-min Rain = 0
KVA1 250041Z 21011KT 36/M06 A299 RMK A01 T03581059  RH  007%=      5-min Rain = 0
KVA1 250042Z 22009KT 36/M06 A299 RMK A01 T03571061  RH  007%=      5-min Rain = 0
KVA1 250043Z 22007KT 36/M06 A299 RMK A01 T03551062  RH  007%=      5-min Rain = 0
KVA1 250044Z 24009KT 36/M06 A299 RMK A01 T03551060  RH  007%=      5-min Rain = 0
KVA1 250045Z 25007KT 36/M06 A299 RMK A01 T03551062  RH  007%=      5-min Rain = 0
KVA1 250046Z 24005KT 36/M06 A299 RMK A01 T03551062  RH  007%=      5-min Rain = 0
KVA1 250047Z 24005KT 36/M06 A299 RMK A01 T03561060  RH  007%=      5-min Rain = 0
KVA1 250048Z 24008KT 36/M06 A299 RMK A01 T03581060  RH  007%=      5-min Rain = 0
KVA1 250049Z 25008KT 36/M06 A299 RMK A01 T03581062  RH  007%=      5-min Rain = 0
KVA1 250050Z 25006KT 36/M06 A299 RMK A01 T03571064  RH  006%=      5-min Rain = 0
KVA1 250051Z 22004KT 36/M06 A299 RMK A01 T03561063  RH  007%=      5-min Rain = 0
KVA1 250052Z 22002KT 36/M06 A299 RMK A01 T03561063  RH  007%=      5-min Rain = 0
KVA1 250053Z 18002KT 36/M07 A299 RMK A01 T03561065  RH  006%=      5-min Rain = 0
KVA1 250054Z 18004KT 36/M06 A299 RMK A01 T03561063  RH  007%=      5-min Rain = 0
KVA1 250055Z 18004KT 36/M06 A299 RMK A01 T03561062  RH  007%=      5-min Rain = 0
KVA1 250056Z 19005KT 36/M06 A2989 RMK A01 T03551061  RH  007%=      5-min Rain = 0
KVA1 250057Z 20007KT 35/M06 A2989 RMK A01 T03541060  RH  007%=      5-min Rain = 0
KVA1 250058Z 24006KT 35/M06 A2989 RMK A01 T03531061  RH  007%=      5-min Rain = 0
KVA1 250059Z 26006KT 35/M06 A299 RMK A01 T03531060  RH  007%=      5-min Rain = 0
KVA1 250100Z 26003KT 35/M06 A299 RMK A01 T03541061  RH  007%=      5-min Rain = 0
KVA1 250101Z 23005KT 36/M06 A299 RMK A01 T03551060  RH  007%=      5-min Rain = 0
KVA1 250102Z 23008KT 36/M06 A299 RMK A01 T03551059  RH  007%=      5-min Rain = 0
KVA1 250103Z 22006KT 36/M06 A299 RMK A01 T03551061  RH  007%=      5-min Rain = 0
KVA1 250104Z 20005KT 36/M06 A299 RMK A01 T03551059  RH  007%=      5-min Rain = 0
KVA1 250105Z 21005KT 36/M06 A299 RMK A01 T03551059  RH  007%=      5-min Rain = 0
KVA1 250106Z 23005KT 35/M06 A299 RMK A01 T03541059  RH  007%=      5-min Rain = 0
KVA1 250107Z 24004KT 35/M06 A299 RMK A01 T03541059  RH  007%=      5-min Rain = 0
KVA1 250108Z 24006KT 35/M06 A299 RMK A01 T03541059  RH  007%=      5-min Rain = 0
KVA1 250109Z 25006KT 35/M06 A299 RMK A01 T03541060  RH  007%=      5-min Rain = 0
KVA1 250110Z 24006KT 35/M06 A299 RMK A01 T03541059  RH  007%=      5-min Rain = 0
KVA1 250111Z 25006KT 35/M06 A299 RMK A01 T03541060  RH  007%=      5-min Rain = 0
KVA1 250112Z 26006KT 35/M06 A299 RMK A01 T03531060  RH  007%=      5-min Rain = 0
KVA1 250113Z 26006KT 35/M06 A299 RMK A01 T03531060  RH  007%=      5-min Rain = 0
KVA1 250114Z 26007KT 35/M06 A299 RMK A01 T03521061  RH  007%=      5-min Rain = 0
KVA1 250115Z 26007KT 35/M06 A299 RMK A01 T03521060  RH  007%=      5-min Rain = 0
KVA1 250116Z 24007KT 35/M06 A299 RMK A01 T03521059  RH  007%=      5-min Rain = 0
KVA1 250117Z 23007KT 35/M06 A299 RMK A01 T03521059  RH  007%=      5-min Rain = 0
KVA1 250118Z 22009KT 35/M06 A299 RMK A01 T03521059  RH  007%=      5-min Rain = 0
KVA1 250119Z 22008KT 35/M06 A299 RMK A01 T03521060  RH  007%=      5-min Rain = 0
KVA1 250120Z 22007KT 35/M06 A299 RMK A01 T03521060  RH  007%=      5-min Rain = 0
KVA1 250121Z 23006KT 35/M06 A299 RMK A01 T03511061  RH  007%=      5-min Rain = 0
KVA1 250122Z 23006KT 35/M06 A299 RMK A01 T03511061  RH  007%=      5-min Rain = 0
KVA1 250123Z 24008KT 35/M06 A299 RMK A01 T03511060  RH  007%=      5-min Rain = 0
KVA1 250124Z 24008KT 35/M06 A299 RMK A01 T03511060  RH  007%=      5-min Rain = 0
KVA1 250125Z 25009KT 35/M06 A299 RMK A01 T03501061  RH  007%=      5-min Rain = 0
KVA1 250126Z 25005KT 35/M06 A299 RMK A01 T03501062  RH  007%=      5-min Rain = 0
KVA1 250127Z 25006KT 35/M06 A299 RMK A01 T03491062  RH  007%=      5-min Rain = 0
KVA1 250128Z 25006KT 35/M06 A299 RMK A01 T03491062  RH  007%=      5-min Rain = 0
KVA1 250129Z 25005KT 35/M06 A299 RMK A01 T03491062  RH  007%=      5-min Rain = 0
KVA1 250130Z 24004KT 35/M06 A299 RMK A01 T03491062  RH  007%=      5-min Rain = 0
KVA1 250131Z 22004KT 35/M06 A299 RMK A01 T03491060  RH  007%=      5-min Rain = 0
KVA1 250132Z 23004KT 35/M06 A299 RMK A01 T03481061  RH  007%=      5-min Rain = 0
KVA1 250133Z 24004KT 35/M06 A299 RMK A01 T03481061  RH  007%=      5-min Rain = 0
KVA1 250134Z 24003KT 35/M06 A299 RMK A01 T03481061  RH  007%=      5-min Rain = 0
KVA1 250135Z 26004KT 35/M06 A299 RMK A01 T03471061  RH  007%=      5-min Rain = 0
KVA1 250136Z 25003KT 35/M06 A299 RMK A01 T03471060  RH  007%=      5-min Rain = 0
KVA1 250137Z 26003KT 35/M06 A299 RMK A01 T03471059  RH  007%=      5-min Rain = 0
KVA1 250138Z 26003KT 35/M06 A299 RMK A01 T03471058  RH  007%=      5-min Rain = 0
KVA1 250139Z 26003KT 35/M06 A299 RMK A01 T03471059  RH  007%=      5-min Rain = 0
KVA1 250140Z 26003KT 35/M06 A299 RMK A01 T03461060  RH  007%=      5-min Rain = 0
KVA1 250141Z 26003KT 35/M06 A299 RMK A01 T03461058  RH  007%=      5-min Rain = 0
KVA1 250142Z 26004KT 35/M06 A299 RMK A01 T03451059  RH  007%=      5-min Rain = 0
KVA1 250143Z 27004KT 34/M06 A299 RMK A01 T03441058  RH  007%=      5-min Rain = 0
KVA1 250144Z 28004KT 34/M06 A299 RMK A01 T03431057  RH  007%=      5-min Rain = 0
KVA1 250145Z 27003KT 34/M06 A299 RMK A01 T03431056  RH  007%=      5-min Rain = 0
KVA1 250146Z 26004KT 34/M05 A299 RMK A01 T03421054  RH  008%=      5-min Rain = 0
KVA1 250147Z 27004KT 34/M06 A299 RMK A01 T03411057  RH  007%=      5-min Rain = 0
KVA1 250148Z 27003KT 34/M06 A299 RMK A01 T03401057  RH  008%=      5-min Rain = 0
KVA1 250149Z 27003KT 34/M06 A299 RMK A01 T03391056  RH  008%=      5-min Rain = 0
KVA1 250150Z 27003KT 34/M06 A299 RMK A01 T03391055  RH  008%=      5-min Rain = 0
KVA1 250151Z 26002KT 34/M06 A299 RMK A01 T03381055  RH  008%=      5-min Rain = 0
KVA1 250152Z 27002KT 34/M06 A299 RMK A01 T03371055  RH  008%=      5-min Rain = 0
KVA1 250153Z 26002KT 34/M06 A299 RMK A01 T03351056  RH  008%=      5-min Rain = 0
KVA1 250154Z 26002KT 33/M05 A299 RMK A01 T03341054  RH  008%=      5-min Rain = 0
KVA1 250155Z 26002KT 33/M06 A299 RMK A01 T03331055  RH  008%=      5-min Rain = 0
KVA1 250156Z 26002KT 33/M05 A299 RMK A01 T03321054  RH  008%=      5-min Rain = 0
KVA1 250157Z 25001KT 33/M06 A299 RMK A01 T03311056  RH  008%=      5-min Rain = 0
KVA1 250158Z 26001KT 33/M06 A299 RMK A01 T03301057  RH  008%=      5-min Rain = 0
KVA1 250159Z 26001KT 33/M05 A299 RMK A01 T03301052  RH  008%=      5-min Rain = 0
KVA1 250200Z 27001KT 33/M05 A299 RMK A01 T03281049  RH  009%=      5-min Rain = 0
KVA1 250201Z 27001KT 33/M05 A299 RMK A01 T03261050  RH  009%=      5-min Rain = 0
KVA1 250202Z 28001KT 33/M05 A299 RMK A01 T03251054  RH  008%=      5-min Rain = 0
KVA1 250203Z 28001KT 32/M06 A299 RMK A01 T03241058  RH  008%=      5-min Rain = 0
KVA1 250204Z 29001KT 32/M05 A299 RMK A01 T03241051  RH  009%=      5-min Rain = 0
KVA1 250205Z 30001KT 32/M05 A299 RMK A01 T03201052  RH  009%=      5-min Rain = 0
KVA1 250206Z 30002KT 32/M05 A299 RMK A01 T03201054  RH  009%=      5-min Rain = 0
KVA1 250207Z 31002KT 32/M05 A299 RMK A01 T03201053  RH  009%=      5-min Rain = 0
KVA1 250208Z 31002KT 32/M05 A299 RMK A01 T03181051  RH  009%=      5-min Rain = 0
KVA1 250209Z 30002KT 32/M05 A299 RMK A01 T03151048  RH  009%=      5-min Rain = 0
KVA1 250210Z 31002KT 31/M05 A299 RMK A01 T03121047  RH  010%=      5-min Rain = 0
KVA1 250211Z 31002KT 31/M05 A299 RMK A01 T03091047  RH  010%=      5-min Rain = 0
KVA1 250212Z 32002KT 31/M05 A299 RMK A01 T03071047  RH  010%=      5-min Rain = 0
KVA1 250213Z 32002KT 31/M05 A299 RMK A01 T03051048  RH  010%=      5-min Rain = 0
KVA1 250214Z 33003KT 31/M05 A299 RMK A01 T03051048  RH  010%=      5-min Rain = 0
KVA1 250215Z 33003KT 30/M05 A299 RMK A01 T03041048  RH  010%=      5-min Rain = 0
KVA1 250216Z 33003KT 31/M05 A299 RMK A01 T03051052  RH  010%=      5-min Rain = 0
KVA1 250217Z 33004KT 31/M05 A299 RMK A01 T03081054  RH  009%=      5-min Rain = 0
KVA1 250218Z 34004KT 31/M05 A299 RMK A01 T03111054  RH  009%=      5-min Rain = 0
KVA1 250219Z 33004KT 31/M05 A299 RMK A01 T03111053  RH  009%=      5-min Rain = 0
KVA1 250220Z 34004KT 31/M05 A299 RMK A01 T03081052  RH  009%=      5-min Rain = 0
KVA1 250221Z 34004KT 31/M05 A299 RMK A01 T03051051  RH  010%=      5-min Rain = 0
KVA1 250222Z 33004KT 30/M05 A299 RMK A01 T03021051  RH  010%=      5-min Rain = 0
KVA1 250223Z 33004KT 30/M05 A299 RMK A01 T03011051  RH  010%=      5-min Rain = 0
KVA1 250224Z 33004KT 30/M05 A299 RMK A01 T03001051  RH  010%=      5-min Rain = 0
KVA1 250225Z 33004KT 30/M05 A299 RMK A01 T02991052  RH  010%=      5-min Rain = 0
KVA1 250226Z 32005KT 30/M05 A299 RMK A01 T02991052  RH  010%=      5-min Rain = 0
KVA1 250227Z 32005KT 30/M05 A299 RMK A01 T02981052  RH  010%=      5-min Rain = 0
KVA1 250228Z 32006KT 30/M05 A299 RMK A01 T02971052  RH  010%=      5-min Rain = 0
KVA1 250229Z 33006KT 30/M05 A299 RMK A01 T02951053  RH  010%=      5-min Rain = 0
KVA1 250230Z 33006KT 29/M05 A299 RMK A01 T02941053  RH  010%=      5-min Rain = 0
KVA1 250231Z 33006KT 29/M05 A299 RMK A01 T02921053  RH  010%=      5-min Rain = 0
KVA1 250232Z 34006KT 29/M05 A299 RMK A01 T02911052  RH  010%=      5-min Rain = 0
KVA1 250233Z 34006KT 29/M05 A2991 RMK A01 T02891053  RH  010%=      5-min Rain = 0
KVA1 250234Z 34006KT 29/M05 A2991 RMK A01 T02871053  RH  010%=      5-min Rain = 0
KVA1 250235Z 34006KT 29/M05 A2991 RMK A01 T02861053  RH  011%=      5-min Rain = 0
KVA1 250236Z 34006KT 29/M05 A2991 RMK A01 T02851053  RH  011%=      5-min Rain = 0
KVA1 250237Z 34006KT 28/M05 A2991 RMK A01 T02841053  RH  011%=      5-min Rain = 0
KVA1 250238Z 34006KT 28/M05 A299 RMK A01 T02831053  RH  011%=      5-min Rain = 0
KVA1 250239Z 35006KT 28/M05 A299 RMK A01 T02821053  RH  011%=      5-min Rain = 0
KVA1 250240Z 35006KT 28/M05 A299 RMK A01 T02821053  RH  011%=      5-min Rain = 0
KVA1 250241Z 35006KT 28/M05 A299 RMK A01 T02821052  RH  011%=      5-min Rain = 0
KVA1 250242Z 35006KT 28/M05 A299 RMK A01 T02811053  RH  011%=      5-min Rain = 0
KVA1 250243Z 35006KT 28/M05 A2991 RMK A01 T02811053  RH  011%=      5-min Rain = 0
KVA1 250244Z 35006KT 28/M05 A2991 RMK A01 T02801053  RH  011%=      5-min Rain = 0
KVA1 250245Z 35006KT 28/M05 A2991 RMK A01 T02801052  RH  011%=      5-min Rain = 0
KVA1 250246Z 34006KT 28/M05 A2991 RMK A01 T02801053  RH  011%=      5-min Rain = 0
KVA1 250247Z 34006KT 28/M05 A2991 RMK A01 T02781053  RH  011%=      5-min Rain = 0
KVA1 250248Z 34006KT 28/M05 A2991 RMK A01 T02771053  RH  011%=      5-min Rain = 0
KVA1 250249Z 34007KT 28/M05 A2991 RMK A01 T02761053  RH  011%=      5-min Rain = 0
KVA1 250250Z 33007KT 28/M05 A2991 RMK A01 T02751053  RH  011%=      5-min Rain = 0
KVA1 250251Z 33007KT 27/M05 A2991 RMK A01 T02741054  RH  011%=      5-min Rain = 0
KVA1 250252Z 33007KT 27/M05 A2991 RMK A01 T02731054  RH  011%=      5-min Rain = 0
KVA1 250253Z 33007KT 27/M05 A2991 RMK A01 T02721054  RH  011%=      5-min Rain = 0
KVA1 250254Z 33007KT 27/M05 A2991 RMK A01 T02711054  RH  011%=      5-min Rain = 0
KVA1 250255Z 33007KT 27/M06 A2991 RMK A01 T02711055  RH  011%=      5-min Rain = 0
KVA1 250256Z 33007KT 27/M05 A2991 RMK A01 T02711054  RH  011%=      5-min Rain = 0
KVA1 250257Z 33007KT 27/M05 A2991 RMK A01 T02711054  RH  011%=      5-min Rain = 0
KVA1 250258Z 33007KT 27/M06 A2991 RMK A01 T02711056  RH  011%=      5-min Rain = 0
KVA1 250259Z 33007KT 27/M06 A2991 RMK A01 T02711056  RH  011%=      5-min Rain = 0
KVA1 250300Z 32007KT 27/M06 A2991 RMK A01 T02711056  RH  011%=      5-min Rain = 0
KVA1 250301Z 33007KT 27/M06 A2991 RMK A01 T02711056  RH  011%=      5-min Rain = 0
KVA1 250302Z 33007KT 27/M06 A2991 RMK A01 T02711056  RH  011%=      5-min Rain = 0
KVA1 250303Z 33007KT 27/M06 A2991 RMK A01 T02711056  RH  011%=      5-min Rain = 0
KVA1 250304Z 33006KT 27/M06 A2991 RMK A01 T02721056  RH  011%=      5-min Rain = 0
KVA1 250305Z 33006KT 27/M06 A2991 RMK A01 T02721057  RH  011%=      5-min Rain = 0
KVA1 250306Z 32006KT 27/M06 A2991 RMK A01 T02721056  RH  011%=      5-min Rain = 0
KVA1 250307Z 32006KT 27/M06 A2991 RMK A01 T02711057  RH  011%=      5-min Rain = 0
KVA1 250308Z 32006KT 27/M06 A2991 RMK A01 T02701057  RH  011%=      5-min Rain = 0
KVA1 250309Z 32006KT 27/M06 A2991 RMK A01 T02691057  RH  011%=      5-min Rain = 0
KVA1 250310Z 32006KT 27/M06 A2991 RMK A01 T02681057  RH  011%=      5-min Rain = 0
KVA1 250311Z 32006KT 27/M06 A2991 RMK A01 T02681057  RH  011%=      5-min Rain = 0
KVA1 250312Z 32006KT 27/M06 A2991 RMK A01 T02671057  RH  011%=      5-min Rain = 0
KVA1 250313Z 32006KT 27/M06 A2991 RMK A01 T02671057  RH  011%=      5-min Rain = 0
KVA1 250314Z 32006KT 27/M06 A2991 RMK A01 T02661057  RH  011%=      5-min Rain = 0
KVA1 250315Z 32006KT 27/M06 A2991 RMK A01 T02661056  RH  012%=      5-min Rain = 0
KVA1 250316Z 32006KT 27/M06 A2991 RMK A01 T02651057  RH  012%=      5-min Rain = 0
KVA1 250317Z 32006KT 27/M06 A2992 RMK A01 T02651057  RH  012%=      5-min Rain = 0
KVA1 250318Z 32006KT 26/M06 A2992 RMK A01 T02641057  RH  012%=      5-min Rain = 0
KVA1 250319Z 33006KT 26/M06 A2992 RMK A01 T02631057  RH  012%=      5-min Rain = 0
KVA1 250320Z 33006KT 26/M06 A2992 RMK A01 T02631057  RH  012%=      5-min Rain = 0
KVA1 250321Z 33006KT 26/M06 A2992 RMK A01 T02631057  RH  012%=      5-min Rain = 0
KVA1 250322Z 33006KT 26/M06 A2992 RMK A01 T02631057  RH  012%=      5-min Rain = 0
KVA1 250323Z 34006KT 26/M06 A2992 RMK A01 T02621057  RH  012%=      5-min Rain = 0
KVA1 250324Z 34006KT 26/M06 A2992 RMK A01 T02631057  RH  012%=      5-min Rain = 0
KVA1 250325Z 34006KT 26/M06 A2992 RMK A01 T02631057  RH  012%=      5-min Rain = 0
KVA1 250326Z 35006KT 26/M06 A2992 RMK A01 T02631057  RH  012%=      5-min Rain = 0
KVA1 250327Z 35005KT 26/M06 A2992 RMK A01 T02631057  RH  012%=      5-min Rain = 0
KVA1 250328Z 36005KT 26/M06 A2992 RMK A01 T02631056  RH  012%=      5-min Rain = 0
KVA1 250329Z 36005KT 26/M06 A2992 RMK A01 T02631056  RH  012%=      5-min Rain = 0
KVA1 250330Z 00005KT 26/M06 A2992 RMK A01 T02631056  RH  012%=      5-min Rain = 0
KVA1 250331Z 01004KT 26/M06 A2992 RMK A01 T02621056  RH  012%=      5-min Rain = 0
KVA1 250332Z 01004KT 26/M06 A2992 RMK A01 T02611056  RH  012%=      5-min Rain = 0
KVA1 250333Z 01005KT 26/M06 A2992 RMK A01 T02601056  RH  012%=      5-min Rain = 0
KVA1 250334Z 02005KT 26/M06 A2992 RMK A01 T02601056  RH  012%=      5-min Rain = 0
KVA1 250335Z 02005KT 26/M06 A2992 RMK A01 T02591056  RH  012%=      5-min Rain = 0
KVA1 250336Z 03005KT 26/M06 A2992 RMK A01 T02581057  RH  012%=      5-min Rain = 0
KVA1 250337Z 04005KT 26/M06 A2992 RMK A01 T02571057  RH  012%=      5-min Rain = 0
KVA1 250338Z 04005KT 26/M06 A2992 RMK A01 T02581056  RH  012%=      5-min Rain = 0
KVA1 250339Z 04006KT 26/M05 A2992 RMK A01 T02571054  RH  012%=      5-min Rain = 0
KVA1 250340Z 06006KT 26/M05 A2992 RMK A01 T02571052  RH  013%=      5-min Rain = 0
KVA1 250341Z 09008KT 26/M05 A2992 RMK A01 T02561051  RH  013%=      5-min Rain = 0
KVA1 250342Z 08007KT 25/M05 A2992 RMK A01 T02541052  RH  013%=      5-min Rain = 0
KVA1 250343Z 09007KT 25/M05 A2992 RMK A01 T02541052  RH  013%=      5-min Rain = 0
KVA1 250344Z 08007KT 26/M05 A2992 RMK A01 T02561052  RH  013%=      5-min Rain = 0
KVA1 250345Z 08006KT 26/M05 A2992 RMK A01 T02571053  RH  013%=      5-min Rain = 0
KVA1 250346Z 09006KT 26/M05 A2992 RMK A01 T02581052  RH  012%=      5-min Rain = 0
KVA1 250347Z 09006KT 26/M05 A2992 RMK A01 T02591053  RH  012%=      5-min Rain = 0
KVA1 250348Z 08006KT 26/M05 A2992 RMK A01 T02601053  RH  012%=      5-min Rain = 0
KVA1 250349Z 08006KT 26/M05 A2992 RMK A01 T02611053  RH  012%=      5-min Rain = 0
KVA1 250350Z 08006KT 26/M05 A2992 RMK A01 T02611054  RH  012%=      5-min Rain = 0
KVA1 250351Z 08006KT 26/M05 A2992 RMK A01 T02621054  RH  012%=      5-min Rain = 0
KVA1 250352Z 08006KT 26/M05 A2992 RMK A01 T02621054  RH  012%=      5-min Rain = 0
KVA1 250353Z 07005KT 26/M05 A2992 RMK A01 T02641054  RH  012%=      5-min Rain = 0
KVA1 250354Z 07005KT 26/M05 A2992 RMK A01 T02641053  RH  012%=      5-min Rain = 0
KVA1 250355Z 08006KT 27/M05 A2992 RMK A01 T02651052  RH  012%=      5-min Rain = 0
KVA1 250356Z 08006KT 27/M05 A2992 RMK A01 T02661052  RH  012%=      5-min Rain = 0
KVA1 250357Z 09006KT 27/M05 A2992 RMK A01 T02671051  RH  012%=      5-min Rain = 0
KVA1 250358Z 09006KT 27/M05 A2992 RMK A01 T02661051  RH  012%=      5-min Rain = 0
KVA1 250359Z 08006KT 27/M05 A2992 RMK A01 T02671050  RH  012%=      5-min Rain = 0
KVA1 250400Z 07006KT 27/M05 A2992 RMK A01 T02671051  RH  012%=      5-min Rain = 0
KVA1 250401Z 07006KT 27/M05 A2992 RMK A01 T02671051  RH  012%=      5-min Rain = 0
KVA1 250402Z 08005KT 27/M05 A2992 RMK A01 T02671051  RH  012%=      5-min Rain = 0
KVA1 250403Z 08005KT 27/M05 A2992 RMK A01 T02691051  RH  012%=      5-min Rain = 0
KVA1 250404Z 08005KT 27/M05 A2993 RMK A01 T02711051  RH  012%=      5-min Rain = 0
KVA1 250405Z 07005KT 27/M05 A2993 RMK A01 T02711050  RH  012%=      5-min Rain = 0
KVA1 250406Z 06004KT 27/M05 A2993 RMK A01 T02721050  RH  012%=      5-min Rain = 0
KVA1 250407Z 03003KT 27/M05 A2993 RMK A01 T02721049  RH  012%=      5-min Rain = 0
KVA1 250408Z 01004KT 27/M05 A2993 RMK A01 T02701051  RH  012%=      5-min Rain = 0
KVA1 250409Z 00005KT 27/M05 A2993 RMK A01 T02651053  RH  012%=      5-min Rain = 0
KVA1 250410Z 36005KT 26/M05 A2993 RMK A01 T02611051  RH  012%=      5-min Rain = 0
KVA1 250411Z 36006KT 26/M05 A2993 RMK A01 T02561051  RH  013%=      5-min Rain = 0
KVA1 250412Z 01006KT 25/M05 A2993 RMK A01 T02531050  RH  013%=      5-min Rain = 0
KVA1 250413Z 01005KT 25/M05 A2993 RMK A01 T02521049  RH  013%=      5-min Rain = 0
KVA1 250414Z 03005KT 25/M05 A2993 RMK A01 T02531045  RH  014%=      5-min Rain = 0
KVA1 250415Z 03006KT 26/M04 A2993 RMK A01 T02561040  RH  014%=      5-min Rain = 0
KVA1 250416Z 03005KT 26/M04 A2993 RMK A01 T02611035  RH  014%=      5-min Rain = 0
KVA1 250417Z 04004KT 26/M03 A2993 RMK A01 T02641034  RH  014%=      5-min Rain = 0
KVA1 250418Z 04005KT 27/M03 A2993 RMK A01 T02651032  RH  014%=      5-min Rain = 0
KVA1 250419Z 03005KT 27/M03 A2993 RMK A01 T02661031  RH  014%=      5-min Rain = 0
KVA1 250420Z 04005KT 27/M03 A2993 RMK A01 T02671030  RH  014%=      5-min Rain = 0
KVA1 250421Z 04005KT 27/M03 A2993 RMK A01 T02671031  RH  014%=      5-min Rain = 0
KVA1 250422Z 04005KT 27/M03 A2993 RMK A01 T02671031  RH  014%=      5-min Rain = 0
KVA1 250423Z 04006KT 27/M03 A2993 RMK A01 T02671029  RH  014%=      5-min Rain = 0
KVA1 250424Z 04005KT 27/M03 A2993 RMK A01 T02671028  RH  014%=      5-min Rain = 0
KVA1 250425Z 04005KT 27/M03 A2993 RMK A01 T02661026  RH  014%=      5-min Rain = 0
KVA1 250426Z 04005KT 27/M03 A2993 RMK A01 T02651026  RH  015%=      5-min Rain = 0
KVA1 250427Z 03005KT 26/M03 A2993 RMK A01 T02641025  RH  015%=      5-min Rain = 0
KVA1 250428Z 02005KT 26/M03 A2993 RMK A01 T02631025  RH  015%=      5-min Rain = 0
KVA1 250429Z 03005KT 26/M03 A2993 RMK A01 T02601026  RH  015%=      5-min Rain = 0
KVA1 250430Z 03005KT 26/M03 A2993 RMK A01 T02591026  RH  015%=      5-min Rain = 0
KVA1 250431Z 02005KT 26/M03 A2993 RMK A01 T02571027  RH  015%=      5-min Rain = 0
KVA1 250432Z 03005KT 26/M03 A2993 RMK A01 T02561027  RH  015%=      5-min Rain = 0
KVA1 250433Z 02005KT 26/M03 A2993 RMK A01 T02561027  RH  015%=      5-min Rain = 0
KVA1 250434Z 01005KT 25/M03 A2993 RMK A01 T02541028  RH  015%=      5-min Rain = 0
KVA1 250435Z 36005KT 25/M03 A2993 RMK A01 T02521029  RH  015%=      5-min Rain = 0
KVA1 250436Z 34006KT 25/M03 A2993 RMK A01 T02491031  RH  015%=      5-min Rain = 0
KVA1 250437Z 33007KT 25/M03 A2994 RMK A01 T02471033  RH  015%=      5-min Rain = 0
KVA1 250438Z 33008KT 25/M04 A2994 RMK A01 T02451035  RH  015%=      5-min Rain = 0
KVA1 250439Z 33009KT 24/M04 A2994 RMK A01 T02441036  RH  015%=      5-min Rain = 0
KVA1 250440Z 33011KT 24/M04 A2994 RMK A01 T02441035  RH  015%=      5-min Rain = 0
KVA1 250441Z 33011KT 25/M03 A2994 RMK A01 T02461034  RH  015%=      5-min Rain = 0
KVA1 250442Z 34008KT 25/M03 A2994 RMK A01 T02491031  RH  015%=      5-min Rain = 0
KVA1 250443Z 34005KT 25/M03 A2994 RMK A01 T02511030  RH  015%=      5-min Rain = 0
KVA1 250444Z 01005KT 25/M03 A2994 RMK A01 T02521029  RH  015%=      5-min Rain = 0
KVA1 250445Z 01006KT 25/M03 A2994 RMK A01 T02541027  RH  015%=      5-min Rain = 0
KVA1 250446Z 01006KT 26/M02 A2994 RMK A01 T02581023  RH  016%=      5-min Rain = 0
KVA1 250447Z 00005KT 26/M02 A2994 RMK A01 T02611022  RH  015%=      5-min Rain = 0
KVA1 250448Z 01006KT 26/M02 A2994 RMK A01 T02621021  RH  015%=      5-min Rain = 0
KVA1 250449Z 36007KT 26/M02 A2994 RMK A01 T02631020  RH  015%=      5-min Rain = 0
KVA1 250450Z 00007KT 26/M02 A2994 RMK A01 T02641020  RH  015%=      5-min Rain = 0
KVA1 250451Z 00006KT 27/M02 A2994 RMK A01 T02661020  RH  015%=      5-min Rain = 0
KVA1 250452Z 01007KT 27/M02 A2994 RMK A01 T02671020  RH  015%=      5-min Rain = 0
KVA1 250453Z 00006KT 27/M02 A2994 RMK A01 T02671019  RH  015%=      5-min Rain = 0
KVA1 250454Z 00007KT 27/M02 A2994 RMK A01 T02661019  RH  015%=      5-min Rain = 0
KVA1 250455Z 36006KT 27/M02 A2994 RMK A01 T02661020  RH  015%=      5-min Rain = 0
KVA1 250456Z 00007KT 26/M02 A2994 RMK A01 T02641022  RH  015%=      5-min Rain = 0
KVA1 250457Z 00007KT 26/M02 A2994 RMK A01 T02631023  RH  015%=      5-min Rain = 0
KVA1 250458Z 00007KT 26/M02 A2994 RMK A01 T02621024  RH  015%=      5-min Rain = 0
KVA1 250459Z 01006KT 26/M02 A2994 RMK A01 T02611024  RH  015%=      5-min Rain = 0

Page generated in 0.0759 seconds.